Flight Track Log - Related Links

Times and Time Zones

All times are in EDT time to prevent confusion due to time zone crossing. See the UAL118 flight status page for this flight to view local times or setup timezone preferences in your user account.

Time Position Orientation Groundspeed Altitude Reporting Facility
EDT Latitude Longitude Course Direction KTS MPH feet Rate Location/Type
Sat 03:07:00 AM 50.1753 8.1243 298° West  Level FlightAware Approximate
Sat 03:08:00 AM 50.2209 7.9717 299° West  Level FlightAware Approximate
Sat 03:08:17 AM 50.0260 8.2470 299° West 243 280 6,000  Level FlightAware ADS-B
Sat 03:08:47 AM 50.0410 8.2000 296° West 238 274 6,200 600 Climbing FlightAware ADS-B
Sat 03:09:17 AM 50.0540 8.1520 293° West 240 276 6,600 840 Climbing FlightAware ADS-B
Sat 03:09:37 AM 50.0640 8.1220 297° West 245 282 6,900 600 Climbing FlightAware ADS-B
Sat 03:09:57 AM 50.0770 8.0940 306° West 248 285 7,000 1,440 Climbing FlightAware ADS-B
Sat 03:10:27 AM 50.1020 8.0470 310° West 246 283 8,100 2,400 Climbing FlightAware ADS-B
Sat 03:10:52 AM 50.1190 8.0140 309° West 256 295 9,200 1,943 Climbing FlightAware ADS-B
Sat 03:12:12 AM 50.1820 7.8920 309° West 310 357 11,500 2,013 Climbing FlightAware ADS-B
Sat 03:13:27 AM 50.2510 7.7570 309° West 326 375 14,400 2,400 Climbing FlightAware ADS-B
Sat 03:14:07 AM 50.3010 7.7110 330° Northwest 337 388 16,100 2,400 Climbing FlightAware ADS-B
Sat 03:14:52 AM 50.3680 7.6650 336° Northwest 337 388 17,800 2,259 Climbing FlightAware ADS-B
Sat 03:15:32 AM 50.4300 7.6220 336° Northwest 351 404 19,300 2,118 Climbing FlightAware ADS-B
Sat 03:16:17 AM 50.4970 7.5760 336° Northwest 350 403 20,800 1,906 Climbing FlightAware ADS-B
Sat 03:16:57 AM 50.5570 7.5330 336° Northwest 361 415 22,000 1,725 Climbing FlightAware ADS-B
Sat 03:17:37 AM 50.6160 7.4760 328° Northwest 364 419 23,100 1,624 Climbing FlightAware ADS-B
Sat 03:18:22 AM 50.6790 7.4110 327° Northwest 368 423 24,300 1,553 Climbing FlightAware ADS-B
Sat 03:19:02 AM 50.7360 7.3510 326° Northwest 374 430 25,300 1,418 Climbing FlightAware ADS-B
Sat 03:19:17 AM 50.7550 7.3230 317° Northwest 371 427 25,600 1,309 Climbing FlightAware ADS-B
Sat 03:19:57 AM 50.7980 7.2410 310° West 377 434 26,500 1,341 Climbing FlightAware ADS-B
Sat 03:20:42 AM 50.8520 7.1470 312° West 379 436 27,500 1,271 Climbing FlightAware ADS-B
Sat 03:21:22 AM 50.9030 7.0620 314° West 391 450 28,300 1,200 Climbing FlightAware ADS-B
Sat 03:22:07 AM 50.9580 6.9680 313° West 397 457 29,200 1,125 Climbing FlightAware ADS-B
Sat 03:22:42 AM 50.9980 6.8930 310° West 402 463 29,800 1,050 Climbing FlightAware ADS-B
Sat 03:23:27 AM 51.0550 6.7890 311° West 401 461 30,600 1,067 Climbing FlightAware ADS-B
Sat 03:24:12 AM 51.1100 6.6880 311° West 406 467 31,400 1,129 Climbing FlightAware ADS-B
Sat 03:24:52 AM 51.1600 6.5960 311° West 404 465 32,200 1,275 Climbing FlightAware ADS-B
Sat 03:25:32 AM 51.2090 6.5060 311° West 403 464 33,100 1,200 Climbing FlightAware ADS-B
Sat 03:26:17 AM 51.2630 6.4050 311° West 400 460 33,900 635 Climbing FlightAware ADS-B
Sat 03:26:57 AM 51.3120 6.3130 310° West 402 463 34,000 71 Climbing FlightAware ADS-B
Sat 03:27:42 AM 51.3670 6.2100 311° West 402 463 34,000  Level FlightAware ADS-B
Sat 03:28:22 AM 51.4160 6.1180 311° West 402 463 34,000  Level FlightAware ADS-B
Sat 03:29:07 AM 51.4710 6.0150 311° West 405 466 34,000  Level FlightAware ADS-B
Sat 03:29:47 AM 51.5190 5.9240 310° West 405 466 34,000  Level FlightAware ADS-B
Sat 03:30:27 AM 51.5670 5.8340 311° West 405 466 34,000  Level FlightAware ADS-B
Sat 03:31:12 AM 51.6230 5.7270 310° West 403 464 34,000  Level FlightAware ADS-B
Sat 03:31:52 AM 51.6700 5.6360 310° West 403 464 34,000 -1,525 Level FlightAware ADS-B
Sat 03:32:11 AM 51.6924 5.5855 310° West 450 518 32,500  Descending FlightAware UK
Sat 03:32:32 AM 51.7190 5.5430 310° West 403 464 34,000  Climbing FlightAware ADS-B
Sat 03:32:47 AM 51.7345 5.5026 310° West 450 518 32,500 -2,727 Descending FlightAware UK
Sat 03:33:05 AM 51.7566 5.4618 311° West 450 518 32,500 3,000 Level FlightAware UK
Sat 03:33:17 AM 51.7720 5.4420 311° West 403 464 34,000  Climbing FlightAware ADS-B
Sat 03:33:35 AM 51.7921 5.3928 311° West 448 516 32,500  Descending FlightAware UK
Sat 03:33:57 AM 51.8200 5.3480 311° West 403 464 34,000 1,452 Climbing FlightAware ADS-B
Sat 03:34:37 AM 51.8680 5.2550 310° West 403 464 34,000 -1,452 Level FlightAware ADS-B
Sat 03:34:59 AM 51.8896 5.1972 310° West 450 518 32,500  Descending FlightAware UK
Sat 03:35:22 AM 51.9210 5.1510 310° West 403 464 34,000  Climbing FlightAware ADS-B
Sat 03:35:41 AM 51.9419 5.1024 310° West 450 518 32,500  Descending FlightAware UK
Sat 03:36:02 AM 51.9700 5.0560 310° West 403 464 34,000  Climbing FlightAware ADS-B
Sat 03:36:17 AM 51.9844 5.0186 310° West 450 518 32,500 -2,727 Descending FlightAware UK
Sat 03:36:35 AM 52.0053 4.9765 309° West 450 518 32,500 3,000 Level FlightAware UK
Sat 03:36:47 AM 52.0240 4.9490 309° West 404 465 34,000  Climbing FlightAware ADS-B
Sat 03:37:11 AM 52.0479 4.8927 309° West 450 518 32,500  Descending FlightAware UK
Sat 03:37:27 AM 52.0690 4.8600 309° West 403 464 34,000  Climbing FlightAware ADS-B
Sat 03:37:59 AM 52.1052 4.7813 309° West 452 520 32,500  Descending FlightAware UK
Sat 03:38:02 AM 52.1120 4.7750 309° West 403 464 34,000  Climbing FlightAware ADS-B
Sat 03:38:23 AM 52.1339 4.7254 309° West 450 518 32,500 -2,308 Descending FlightAware UK
Sat 03:38:41 AM 52.1551 4.6832 309° West 450 518 32,500 4,737 Level FlightAware UK
Sat 03:38:42 AM 52.1600 4.6810 309° West 404 465 34,000  Climbing FlightAware ADS-B
Sat 03:39:05 AM 52.1823 4.6260 309° West 450 518 32,500  Descending FlightAware UK
Sat 03:39:27 AM 52.2130 4.5760 309° West 405 466 34,000  Climbing FlightAware ADS-B
Sat 03:39:47 AM 52.2314 4.5269 309° West 450 518 32,500  Descending FlightAware UK
Sat 03:40:07 AM 52.2590 4.4840 309° West 404 465 34,000  Climbing FlightAware ADS-B
Sat 03:40:23 AM 52.2748 4.4433 309° West 450 518 32,500  Descending FlightAware UK
Sat 03:40:47 AM 52.3080 4.3860 309° West 404 465 34,000 1,304 Climbing FlightAware ADS-B
Sat 03:41:32 AM 52.3620 4.2770 309° West 405 466 34,000 -1,364 Level FlightAware ADS-B
Sat 03:41:53 AM 52.3801 4.2298 309° West 448 516 32,500  Descending FlightAware UK
Sat 03:42:12 AM 52.4080 4.1830 309° West 406 467 34,000  Climbing FlightAware ADS-B
Sat 03:42:29 AM 52.4225 4.1443 309° West 450 518 32,500 -2,571 Descending FlightAware UK
Sat 03:42:47 AM 52.4435 4.1014 309° West 450 518 32,500 3,214 Level FlightAware UK
Sat 03:42:57 AM 52.4620 4.0730 309° West 406 467 34,000  Climbing FlightAware ADS-B
Sat 03:43:23 AM 52.4858 4.0153 309° West 452 520 32,500  Descending FlightAware UK
Sat 03:43:32 AM 52.5020 3.9920 309° West 406 467 34,000  Climbing FlightAware ADS-B
Sat 03:43:47 AM 52.5137 3.9576 309° West 452 520 32,500 -2,727 Descending FlightAware UK
Sat 03:44:05 AM 52.5346 3.9143 308° West 452 520 32,500 3,000 Level FlightAware UK
Sat 03:44:17 AM 52.5550 3.8830 308° West 406 467 34,000  Climbing FlightAware ADS-B
Sat 03:44:41 AM 52.5769 3.8276 308° West 452 520 32,500  Descending FlightAware UK
Sat 03:45:02 AM 52.6060 3.7780 308° West 406 467 34,000  Climbing FlightAware ADS-B
Sat 03:45:17 AM 52.6191 3.7408 308° West 452 520 32,500 -2,727 Descending FlightAware UK
Sat 03:45:35 AM 52.6400 3.6973 308° West 452 520 32,500 3,600 Level FlightAware UK
Sat 03:45:42 AM 52.6540 3.6810 308° West 406 467 34,000  Climbing FlightAware ADS-B
Sat 03:45:59 AM 52.6683 3.6394 308° West 452 520 32,500  Descending FlightAware UK
Sat 03:46:12 AM 52.6900 3.6050 308° West 407 468 34,000  Climbing FlightAware ADS-B
Sat 03:46:29 AM 52.7032 3.5668 308° West 452 520 32,500  Descending FlightAware UK
Sat 03:46:52 AM 52.7370 3.5090 308° West 407 468 34,000  Climbing FlightAware ADS-B
Sat 03:47:17 AM 52.7588 3.4502 308° West 454 522 32,500  Descending FlightAware UK
Sat 03:47:37 AM 52.7900 3.3980 308° West 406 467 34,000  Climbing FlightAware ADS-B
Sat 03:48:05 AM 52.8145 3.3340 308° West 454 522 32,500  Descending FlightAware UK
Sat 03:48:22 AM 52.8410 3.2910 308° West 406 467 34,000  Climbing FlightAware ADS-B
Sat 03:48:47 AM 52.8631 3.2315 308° West 454 522 32,500  Descending FlightAware UK
Sat 03:49:02 AM 52.8880 3.1930 308° West 406 467 34,000  Climbing FlightAware ADS-B
Sat 03:49:17 AM 52.8980 3.1583 308° West 454 522 32,500 -2,368 Descending FlightAware UK
Sat 03:49:40 AM 52.9254 3.1001 308° West 454 522 32,500 3,600 Level FlightAware UK
Sat 03:49:42 AM 52.9340 3.0960 308° West 406 467 34,000  Climbing FlightAware ADS-B
Sat 03:49:58 AM 52.9461 3.0559 308° West 456 525 32,500 -2,647 Descending FlightAware UK
Sat 03:50:16 AM 52.9667 3.0122 308° West 454 522 32,500 3,750 Level FlightAware UK
Sat 03:50:22 AM 52.9810 2.9970 308° West 406 467 34,000  Climbing FlightAware ADS-B
Sat 03:50:40 AM 52.9947 2.9528 308° West 454 522 32,500 -2,500 Descending FlightAware UK
Sat 03:50:58 AM 53.0151 2.9091 308° West 452 520 32,500 3,333 Level FlightAware UK
Sat 03:51:07 AM 53.0330 2.8860 308° West 406 467 34,000  Climbing FlightAware ADS-B
Sat 03:51:22 AM 53.0429 2.8496 308° West 454 522 32,500  Descending FlightAware UK
Sat 03:51:47 AM 53.0790 2.7870 308° West 406 467 34,000  Climbing FlightAware ADS-B
Sat 03:52:10 AM 53.0982 2.7319 308° West 452 520 32,500 -2,195 Descending FlightAware UK
Sat 03:52:28 AM 53.1187 2.6884 308° West 452 520 32,500 4,091 Level FlightAware UK
Sat 03:52:32 AM 53.1290 2.6800 308° West 405 466 34,000  Climbing FlightAware ADS-B
Sat 03:52:47 AM 53.1396 2.6431 308° West 452 520 32,500 -2,813 Descending FlightAware UK
Sat 03:53:04 AM 53.1596 2.5996 308° West 452 520 32,500 3,600 Level FlightAware UK
Sat 03:53:12 AM 53.1750 2.5820 308° West 405 466 34,000  Climbing FlightAware ADS-B
Sat 03:53:28 AM 53.1869 2.5403 308° West 452 520 32,500 -2,647 Descending FlightAware UK
Sat 03:53:46 AM 53.2029 2.4912 299° West 450 518 32,500 3,103 Level FlightAware UK
Sat 03:53:57 AM 53.2180 2.4640 299° West 400 460 34,000  Climbing FlightAware ADS-B
Sat 03:54:16 AM 53.2200 2.4038 299° West 450 518 32,500 -2,432 Descending FlightAware UK
Sat 03:54:34 AM 53.2288 2.3492 285° West 450 518 32,500 4,286 Level FlightAware UK
Sat 03:54:37 AM 53.2380 2.3450 285° West 400 460 34,000  Climbing FlightAware ADS-B
Sat 03:54:52 AM 53.2364 2.2955 285° West 452 520 32,500 -2,727 Descending FlightAware UK
Sat 03:55:10 AM 53.2440 2.2413 283° West 452 520 32,500 3,600 Level FlightAware UK
Sat 03:55:17 AM 53.2560 2.2200 283° West 399 459 34,000  Climbing FlightAware ADS-B
Sat 03:55:34 AM 53.2539 2.1697 283° West 450 518 32,500 -2,571 Descending FlightAware UK
Sat 03:55:52 AM 53.2616 2.1158 283° West 452 520 32,500 3,214 Level FlightAware UK
Sat 03:56:02 AM 53.2750 2.0890 283° West 399 459 34,000  Climbing FlightAware ADS-B
Sat 03:56:22 AM 53.2744 2.0256 283° West 452 520 32,500  Descending FlightAware UK
Sat 03:56:42 AM 53.2920 1.9680 283° West 399 459 34,000  Climbing FlightAware ADS-B
Sat 03:56:58 AM 53.2901 1.9175 283° West 452 520 32,500 -2,647 Descending FlightAware UK
Sat 03:57:16 AM 53.2980 1.8635 284° West 452 520 32,500 3,750 Level FlightAware UK
Sat 03:57:22 AM 53.3090 1.8510 284° West 399 459 34,000  Climbing FlightAware ADS-B
Sat 03:57:40 AM 53.3082 1.7914 284° West 452 520 32,500 -2,500 Descending FlightAware UK
Sat 03:57:58 AM 53.3158 1.7378 283° West 452 520 32,500 3,462 Level FlightAware UK
Sat 03:58:06 AM 53.3290 1.7099 283° West 401 461 34,000  Climbing FlightAware ADS-B
Sat 03:58:22 AM 53.3258 1.6660 283° West 454 522 32,500  Descending FlightAware UK
Sat 03:58:36 AM 53.3417 1.6193 283° West 400 460 34,000  Climbing FlightAware ADS-B
Sat 03:58:52 AM 53.3384 1.5756 283° West 456 525 32,500 -2,647 Descending FlightAware UK
Sat 03:59:10 AM 53.3460 1.5214 283° West 454 522 32,500 2,571 Level FlightAware UK
Sat 03:59:27 AM 53.3630 1.4673 283° West 399 459 34,000  Climbing FlightAware ADS-B
Sat 03:59:51 AM 53.3636 1.3957 283° West 454 522 32,500  Descending FlightAware UK
Sat 04:00:01 AM 53.3769 1.3660 283° West 398 458 34,000 2,250 Climbing FlightAware ADS-B
Sat 04:00:31 AM 53.3894 1.2749 283° West 398 458 34,000 -1,765 Level FlightAware ADS-B
Sat 04:00:52 AM 53.3884 1.2149 283° West 454 522 32,500 -2,045 Descending FlightAware UK
Sat 04:01:15 AM 53.3981 1.1434 283° West 454 522 32,500 2,903 Level FlightAware UK
Sat 04:01:23 AM 53.4105 1.1202 283° West 399 459 34,000  Climbing FlightAware ADS-B
Sat 04:01:39 AM 53.4078 1.0719 283° West 454 522 32,500 -2,250 Descending FlightAware UK
Sat 04:02:03 AM 53.4175 0.9993 283° West 454 522 32,500 2,368 Level FlightAware UK
Sat 04:02:17 AM 53.4310 0.9660 283° West 396 456 34,000  Climbing FlightAware ADS-B
Sat 04:02:33 AM 53.4295 0.9098 283° West 454 522 32,500 -2,647 Descending FlightAware UK
Sat 04:02:51 AM 53.4368 0.8552 283° West 454 522 32,500 3,103 Level FlightAware UK
Sat 04:03:02 AM 53.4490 0.8340 283° West 396 456 34,000  Climbing FlightAware ADS-B
Sat 04:03:21 AM 53.4486 0.7666 283° West 456 525 32,500  Descending FlightAware UK
Sat 04:03:44 AM 53.4668 0.6978 283° West 394 453 34,000  Climbing FlightAware ADS-B
Sat 04:04:03 AM 53.4652 0.6411 283° West 454 522 32,500 -2,432 Descending FlightAware UK
Sat 04:04:21 AM 53.4722 0.5874 282° West 454 522 32,500 3,750 Level FlightAware UK
Sat 04:04:27 AM 53.4835 0.5704 282° West 394 453 34,000  Climbing FlightAware ADS-B
Sat 04:04:45 AM 53.4814 0.5164 282° West 454 522 32,500  Descending FlightAware UK
Sat 04:04:59 AM 53.4957 0.4760 282° West 392 451 34,000  Climbing FlightAware ADS-B
Sat 04:05:21 AM 53.4953 0.4088 282° West 452 520 32,500  Descending FlightAware UK
Sat 04:05:30 AM 53.5075 0.3836 282° West 391 450 34,000  Climbing FlightAware ADS-B
Sat 04:05:51 AM 53.5067 0.3205 282° West 452 520 32,500  Descending FlightAware UK
Sat 04:06:01 AM 53.5192 0.2927 282° West 390 449 34,000  Climbing FlightAware ADS-B
Sat 04:06:21 AM 53.5180 0.2318 282° West 452 520 32,500  Descending FlightAware UK
Sat 04:06:36 AM 53.5323 0.1895 282° West 390 449 34,000 1,957 Climbing FlightAware ADS-B
Sat 04:07:07 AM 53.5436 0.0986 282° West 388 447 34,000  Level FlightAware ADS-B
Sat 04:07:37 AM 53.5547 0.0093 282° West 388 447 34,000  Level FlightAware ADS-B
Sat 04:08:07 AM 53.5657 -0.0784 282° West 388 447 34,000  Level FlightAware ADS-B
Sat 04:08:38 AM 53.5769 -0.1697 282° West 387 445 34,000 -1,475 Level FlightAware ADS-B
Sat 04:09:08 AM 53.5798 -0.2630 282° West 452 520 32,500 -1,500 Descending FlightAware UK
Sat 04:09:38 AM 53.5905 -0.3507 282° West 454 522 32,500 2,308 Level FlightAware UK
Sat 04:09:47 AM 53.6010 -0.3640 282° West 385 443 34,000  Climbing FlightAware ADS-B
Sat 04:10:14 AM 53.6034 -0.4561 282° West 454 522 32,500  Descending FlightAware UK
Sat 04:10:27 AM 53.6140 -0.4790 282° West 384 442 34,000  Climbing FlightAware ADS-B
Sat 04:10:50 AM 53.6160 -0.5617 282° West 454 522 32,500  Descending FlightAware UK
Sat 04:11:10 AM 53.6308 -0.6154 282° West 384 442 34,000 1,765 Climbing FlightAware ADS-B
Sat 04:11:41 AM 53.6416 -0.7066 281° West 383 441 34,000 -1,731 Level FlightAware ADS-B
Sat 04:12:02 AM 53.6411 -0.7726 281° West 452 520 32,500  Descending FlightAware UK
Sat 04:12:37 AM 53.6607 -0.8702 281° West 382 440 34,000  Climbing FlightAware ADS-B
Sat 04:12:56 AM 53.6597 -0.9301 281° West 452 520 32,500  Descending FlightAware UK
Sat 04:13:12 AM 53.6710 -0.9600 281° West 381 438 34,000  Climbing FlightAware ADS-B
Sat 04:13:14 AM 53.6658 -0.9820 281° West 452 520 32,500  Descending FlightAware UK
Sat 04:13:22 AM 53.6758 -0.9998 282° West 381 438 34,000  Climbing FlightAware ADS-B
Sat 04:13:38 AM 53.6739 -1.0519 282° West 450 518 32,500  Descending FlightAware UK
Sat 04:13:52 AM 53.6857 -1.0876 282° West 381 438 34,000  Climbing FlightAware ADS-B
Sat 04:14:08 AM 53.6838 -1.1393 282° West 452 520 32,500 -2,647 Descending FlightAware UK
Sat 04:14:26 AM 53.6899 -1.1924 281° West 452 520 32,500 2,647 Level FlightAware UK
Sat 04:14:42 AM 53.7010 -1.2250 281° West 380 437 34,000 2,250 Climbing FlightAware ADS-B
Sat 04:15:06 AM 53.7102 -1.3032 281° West 380 437 34,000  Level FlightAware ADS-B
Sat 04:15:37 AM 53.7202 -1.3927 281° West 380 437 34,000 -1,800 Level FlightAware ADS-B
Sat 04:15:56 AM 53.7195 -1.4540 281° West 454 522 32,500  Descending FlightAware UK
Sat 04:16:08 AM 53.7302 -1.4828 281° West 380 437 34,000  Climbing FlightAware ADS-B
Sat 04:16:26 AM 53.7294 -1.5413 281° West 452 520 32,500  Descending FlightAware UK
Sat 04:16:39 AM 53.7399 -1.5716 281° West 379 436 34,000  Climbing FlightAware ADS-B
Sat 04:16:56 AM 53.7389 -1.6281 281° West 452 520 32,500  Descending FlightAware UK
Sat 04:17:16 AM 53.7516 -1.6779 281° West 379 436 34,000 1,800 Climbing FlightAware ADS-B
Sat 04:17:46 AM 53.7611 -1.7654 280° West 379 436 34,000  Level FlightAware ADS-B
Sat 04:18:16 AM 53.7707 -1.8538 280° West 379 436 34,000  Level FlightAware ADS-B
Sat 04:18:52 AM 53.7810 -1.9510 280° West 378 435 34,000 -1,406 Level FlightAware ADS-B
Sat 04:19:20 AM 53.7843 -2.0465 280° West 456 525 32,500  Descending FlightAware UK
Sat 04:19:37 AM 53.7950 -2.0790 280° West 378 435 34,000 4,500 Climbing FlightAware ADS-B
Sat 04:19:40 AM 53.7966 -2.0986 278° West 379 436 34,000 -3,600 Level FlightAware ADS-B
Sat 04:20:02 AM 53.7973 -2.1689 278° West 456 525 32,500  Descending FlightAware UK
Sat 04:20:17 AM 53.8070 -2.1980 278° West 377 434 34,000  Climbing FlightAware ADS-B
Sat 04:20:32 AM 53.8065 -2.2567 278° West 460 529 32,500 -2,727 Descending FlightAware UK
Sat 04:20:50 AM 53.8119 -2.3083 280° West 460 529 32,500 3,600 Level FlightAware UK
Sat 04:20:57 AM 53.8190 -2.3130 280° West 377 434 34,000  Climbing FlightAware ADS-B
Sat 04:21:13 AM 53.8193 -2.3773 280° West 458 527 32,500  Descending FlightAware UK
Sat 04:21:42 AM 53.8330 -2.4450 280° West 375 432 34,000  Climbing FlightAware ADS-B
Sat 04:22:01 AM 53.8334 -2.5162 280° West 458 527 32,500 -2,368 Descending FlightAware UK
Sat 04:22:20 AM 53.8387 -2.5685 280° West 458 527 32,500 4,286 Level FlightAware UK
Sat 04:22:22 AM 53.8440 -2.5560 280° West 373 429 34,000  Climbing FlightAware ADS-B
Sat 04:22:37 AM 53.8439 -2.6196 280° West 456 525 32,500 -2,727 Descending FlightAware UK
Sat 04:22:55 AM 53.8492 -2.6711 280° West 454 522 32,500 3,600 Level FlightAware UK
Sat 04:23:02 AM 53.8550 -2.6680 280° West 371 427 34,000  Climbing FlightAware ADS-B
Sat 04:23:19 AM 53.8561 -2.7396 280° West 454 522 32,500  Descending FlightAware UK
Sat 04:23:42 AM 53.8670 -2.7830 280° West 370 426 34,000  Climbing FlightAware ADS-B
Sat 04:23:43 AM 53.8629 -2.8080 280° West 452 520 32,500 -3,600 Descending FlightAware UK
Sat 04:24:07 AM 53.8698 -2.8756 280° West 452 520 32,500  Level FlightAware UK
Sat 04:24:25 AM 53.8749 -2.9268 280° West 452 520 32,500 4,500 Level FlightAware UK
Sat 04:24:27 AM 53.8790 -2.9140 280° West 368 423 34,000  Climbing FlightAware ADS-B
Sat 04:24:43 AM 53.8799 -2.9778 280° West 452 520 32,500  Descending FlightAware UK
Sat 04:25:12 AM 53.8930 -3.0370 280° West 366 421 34,000 1,304 Climbing FlightAware ADS-B
Sat 04:25:52 AM 53.9210 -3.1460 294° West 366 421 34,000 -1,636 Level FlightAware ADS-B
Sat 04:26:07 AM 53.9288 -3.2027 294° West 452 520 32,500 -2,308 Descending FlightAware UK
Sat 04:26:31 AM 53.9433 -3.2664 291° West 452 520 32,500 3,600 Level FlightAware UK
Sat 04:26:32 AM 53.9470 -3.2550 291° West 365 420 34,000  Climbing FlightAware ADS-B
Sat 04:27:07 AM 53.9644 -3.3630 291° West 452 520 32,500  Descending FlightAware UK
Sat 04:27:12 AM 53.9690 -3.3540 291° West 365 420 34,000  Climbing FlightAware ADS-B
Sat 04:27:37 AM 53.9819 -3.4435 291° West 456 525 32,500  Descending FlightAware UK
Sat 04:27:57 AM 53.9960 -3.4800 291° West 364 419 34,000  Climbing FlightAware ADS-B
Sat 04:28:13 AM 54.0027 -3.5393 291° West 456 525 32,500 -2,647 Descending FlightAware UK
Sat 04:28:31 AM 54.0132 -3.5875 290° West 456 525 32,500 3,103 Level FlightAware UK
Sat 04:28:42 AM 54.0230 -3.6030 290° West 362 417 34,000  Climbing FlightAware ADS-B
Sat 04:29:01 AM 54.0308 -3.6674 290° West 456 525 32,500 -2,432 Descending FlightAware UK
Sat 04:29:19 AM 54.0413 -3.7152 291° West 456 525 32,500 4,286 Level FlightAware UK
Sat 04:29:22 AM 54.0460 -3.7090 291° West 361 415 34,000  Climbing FlightAware ADS-B
Sat 04:29:37 AM 54.0518 -3.7629 291° West 456 525 32,500 -2,727 Descending FlightAware UK
Sat 04:29:55 AM 54.0624 -3.8105 291° West 456 525 32,500 3,000 Level FlightAware UK
Sat 04:30:07 AM 54.0720 -3.8270 291° West 360 414 34,000 1,731 Climbing FlightAware ADS-B
Sat 04:30:47 AM 54.0970 -3.9320 292° West 358 412 34,000 -1,500 Level FlightAware ADS-B
Sat 04:31:07 AM 54.1062 -3.9987 292° West 458 527 32,500 -2,368 Descending FlightAware UK
Sat 04:31:25 AM 54.1168 -4.0459 291° West 458 527 32,500 3,600 Level FlightAware UK
Sat 04:31:32 AM 54.1240 -4.0520 291° West 357 411 34,000  Climbing FlightAware ADS-B
Sat 04:31:49 AM 54.1309 -4.1086 291° West 458 527 32,500 -2,571 Descending FlightAware UK
Sat 04:32:07 AM 54.1415 -4.1554 291° West 456 525 32,500 3,913 Level FlightAware UK
Sat 04:32:12 AM 54.1470 -4.1560 291° West 354 407 34,000  Climbing FlightAware ADS-B
Sat 04:32:31 AM 54.1554 -4.2178 291° West 458 527 32,500 -2,432 Descending FlightAware UK
Sat 04:32:49 AM 54.1658 -4.2643 291° West 458 527 32,500 4,286 Level FlightAware UK
Sat 04:32:52 AM 54.1710 -4.2600 291° West 351 404 34,000  Climbing FlightAware ADS-B
Sat 04:33:07 AM 54.1763 -4.3106 291° West 458 527 32,500 -2,308 Descending FlightAware UK
Sat 04:33:31 AM 54.1901 -4.3724 291° West 458 527 32,500 3,000 Level FlightAware UK
Sat 04:33:37 AM 54.1960 -4.3730 291° West 349 402 34,000  Climbing FlightAware ADS-B
Sat 04:34:00 AM 54.2071 -4.4488 291° West 456 525 32,500  Descending FlightAware UK
Sat 04:34:17 AM 54.2190 -4.4780 291° West 347 399 34,000  Climbing FlightAware ADS-B
Sat 04:34:36 AM 54.2276 -4.5406 291° West 456 525 32,500 -2,432 Descending FlightAware UK
Sat 04:34:54 AM 54.2377 -4.5864 291° West 456 525 32,500 3,462 Level FlightAware UK
Sat 04:35:02 AM 54.2450 -4.5950 291° West 345 397 34,000  Climbing FlightAware ADS-B
Sat 04:35:18 AM 54.2511 -4.6471 291° West 454 522 32,500 -2,647 Descending FlightAware UK
Sat 04:35:36 AM 54.2611 -4.6925 291° West 454 522 32,500 3,750 Level FlightAware UK
Sat 04:35:42 AM 54.2660 -4.6890 291° West 343 395 34,000  Climbing FlightAware ADS-B
Sat 04:36:00 AM 54.2744 -4.7532 291° West 454 522 32,500 -2,500 Descending FlightAware UK
Sat 04:36:18 AM 54.2844 -4.7987 291° West 452 520 32,500 4,091 Level FlightAware UK
Sat 04:36:22 AM 54.2890 -4.7970 291° West 342 394 34,000  Climbing FlightAware ADS-B
Sat 04:36:42 AM 54.2976 -4.8593 291° West 452 520 32,500 -2,368 Descending FlightAware UK
Sat 04:37:00 AM 54.3075 -4.9047 290° West 450 518 32,500 3,600 Level FlightAware UK
Sat 04:37:07 AM 54.3130 -4.9080 290° West 342 394 34,000  Climbing FlightAware ADS-B
Sat 04:37:24 AM 54.3207 -4.9653 290° West 450 518 32,500 -2,571 Descending FlightAware UK
Sat 04:37:42 AM 54.3306 -5.0107 290° West 448 516 32,500 3,913 Level FlightAware UK
Sat 04:37:47 AM 54.3360 -5.0100 290° West 341 392 34,000  Climbing FlightAware ADS-B
Sat 04:38:12 AM 54.3469 -5.0862 290° West 448 516 32,500  Descending FlightAware UK
Sat 04:38:32 AM 54.3610 -5.1250 290° West 342 394 34,000  Climbing FlightAware ADS-B
Sat 04:39:00 AM 54.3730 -5.2073 290° West 448 516 32,500  Descending FlightAware UK
Sat 04:39:12 AM 54.3830 -5.2280 290° West 342 394 34,000  Climbing FlightAware ADS-B
Sat 04:39:30 AM 54.3892 -5.2831 290° West 448 516 32,500 -2,500 Descending FlightAware UK
Sat 04:39:48 AM 54.3989 -5.3288 290° West 450 518 32,500 4,091 Level FlightAware UK
Sat 04:39:52 AM 54.4020 -5.3210 290° West 342 394 34,000  Climbing FlightAware ADS-B
Sat 04:40:12 AM 54.4119 -5.3898 290° West 450 518 32,500 -2,368 Descending FlightAware UK
Sat 04:40:30 AM 54.4216 -5.4357 290° West 450 518 32,500 3,600 Level FlightAware UK
Sat 04:40:37 AM 54.4280 -5.4420 290° West 344 396 34,000  Climbing FlightAware ADS-B
Sat 04:40:54 AM 54.4346 -5.4970 290° West 450 518 32,500 -2,571 Descending FlightAware UK
Sat 04:41:12 AM 54.4443 -5.5425 290° West 450 518 32,500 3,913 Level FlightAware UK
Sat 04:41:17 AM 54.4500 -5.5460 290° West 344 396 34,000  Climbing FlightAware ADS-B
Sat 04:41:36 AM 54.4573 -5.6038 290° West 448 516 32,500 -2,432 Descending FlightAware UK
Sat 04:41:54 AM 54.4670 -5.6499 290° West 448 516 32,500 3,462 Level FlightAware UK
Sat 04:42:02 AM 54.4750 -5.6620 290° West 346 398 34,000  Climbing FlightAware ADS-B
Sat 04:42:18 AM 54.4798 -5.7116 290° West 450 518 32,500 -2,647 Descending FlightAware UK
Sat 04:42:36 AM 54.4895 -5.7582 290° West 452 520 32,500 3,750 Level FlightAware UK
Sat 04:42:42 AM 54.4960 -5.7660 290° West 348 400 34,000  Climbing FlightAware ADS-B
Sat 04:43:06 AM 54.5059 -5.8361 290° West 452 520 32,500  Descending FlightAware UK
Sat 04:43:22 AM 54.5180 -5.8670 290° West 350 403 34,000  Climbing FlightAware ADS-B
Sat 04:43:42 AM 54.5253 -5.9303 290° West 454 522 32,500 -2,368 Descending FlightAware UK
Sat 04:44:00 AM 54.5351 -5.9775 290° West 456 525 32,500 3,600 Level FlightAware UK
Sat 04:44:07 AM 54.5410 -5.9810 290° West 352 405 34,000  Climbing FlightAware ADS-B
Sat 04:44:24 AM 54.5482 -6.0405 290° West 458 527 32,500 -2,571 Descending FlightAware UK
Sat 04:44:42 AM 54.5579 -6.0875 290° West 458 527 32,500 3,913 Level FlightAware UK
Sat 04:44:47 AM 54.5630 -6.0880 290° West 352 405 34,000  Climbing FlightAware ADS-B
Sat 04:45:06 AM 54.5708 -6.1497 290° West 456 525 32,500 -2,432 Descending FlightAware UK
Sat 04:45:24 AM 54.5803 -6.1972 289° West 458 527 32,500 4,286 Level FlightAware UK
Sat 04:45:27 AM 54.5860 -6.1970 289° West 352 405 34,000  Climbing FlightAware ADS-B
Sat 04:45:42 AM 54.5900 -6.2450 289° West 458 527 32,500 -2,727 Descending FlightAware UK
Sat 04:46:00 AM 54.5995 -6.2920 289° West 458 527 32,500 3,600 Level FlightAware UK
Sat 04:46:07 AM 54.6060 -6.2960 289° West 353 406 34,000  Climbing FlightAware ADS-B
Sat 04:46:24 AM 54.6122 -6.3555 289° West 458 527 32,500 -2,195 Descending FlightAware UK
Sat 04:46:48 AM 54.6253 -6.4195 289° West 460 529 32,500 3,214 Level FlightAware UK
Sat 04:46:52 AM 54.6300 -6.4140 289° West 353 406 34,000  Climbing FlightAware ADS-B
Sat 04:47:12 AM 54.6380 -6.4832 289° West 460 529 32,500 -2,368 Descending FlightAware UK
Sat 04:47:30 AM 54.6477 -6.5306 290° West 460 529 32,500 4,500 Level FlightAware UK
Sat 04:47:32 AM 54.6530 -6.5310 290° West 353 406 34,000  Climbing FlightAware ADS-B
Sat 04:47:48 AM 54.6574 -6.5783 290° West 458 527 32,500 -2,647 Descending FlightAware UK
Sat 04:48:06 AM 54.6670 -6.6259 289° West 458 527 32,500 3,103 Level FlightAware UK
Sat 04:48:17 AM 54.6760 -6.6440 289° West 353 406 34,000  Climbing FlightAware ADS-B
Sat 04:48:36 AM 54.6827 -6.7054 289° West 458 527 32,500 -2,432 Descending FlightAware UK
Sat 04:48:54 AM 54.6923 -6.7531 289° West 460 529 32,500 3,462 Level FlightAware UK
Sat 04:49:02 AM 54.7000 -6.7630 289° West 354 407 34,000  Climbing FlightAware ADS-B
Sat 04:49:18 AM 54.7049 -6.8170 289° West 458 527 32,500 -2,647 Descending FlightAware UK
Sat 04:49:36 AM 54.7143 -6.8649 289° West 460 529 32,500 3,750 Level FlightAware UK
Sat 04:49:42 AM 54.7220 -6.8720 289° West 354 407 34,000  Climbing FlightAware ADS-B
Sat 04:50:00 AM 54.7268 -6.9289 289° West 460 529 32,500 -2,500 Descending FlightAware UK
Sat 04:50:18 AM 54.7362 -6.9768 289° West 460 529 32,500 4,091 Level FlightAware UK
Sat 04:50:22 AM 54.7430 -6.9790 289° West 353 406 34,000  Climbing FlightAware ADS-B
Sat 04:50:42 AM 54.7487 -7.0407 289° West 460 529 32,500 -2,368 Descending FlightAware UK
Sat 04:51:00 AM 54.7581 -7.0886 289° West 458 527 32,500 3,600 Level FlightAware UK
Sat 04:51:07 AM 54.7670 -7.0990 289° West 352 405 34,000  Climbing FlightAware ADS-B
Sat 04:51:24 AM 54.7706 -7.1524 289° West 456 525 32,500 -2,571 Descending FlightAware UK
Sat 04:51:42 AM 54.7799 -7.2001 289° West 458 527 32,500 3,913 Level FlightAware UK
Sat 04:51:47 AM 54.7870 -7.2050 289° West 352 405 34,000  Climbing FlightAware ADS-B
Sat 04:52:06 AM 54.7924 -7.2637 289° West 458 527 32,500 -2,432 Descending FlightAware UK
Sat 04:52:24 AM 54.8016 -7.3115 288° West 458 527 32,500 3,462 Level FlightAware UK
Sat 04:52:32 AM 54.8110 -7.3250 288° West 352 405 34,000  Climbing FlightAware ADS-B
Sat 04:52:48 AM 54.8138 -7.3753 288° West 458 527 32,500 -2,647 Descending FlightAware UK
Sat 04:53:06 AM 54.8228 -7.4225 288° West 458 527 32,500 3,750 Level FlightAware UK
Sat 04:53:12 AM 54.8320 -7.4330 288° West 350 403 34,000  Climbing FlightAware ADS-B
Sat 04:53:30 AM 54.8349 -7.4859 288° West 458 527 32,500 -2,500 Descending FlightAware UK
Sat 04:53:48 AM 54.8440 -7.5334 288° West 456 525 32,500 4,091 Level FlightAware UK
Sat 04:53:52 AM 54.8510 -7.5360 288° West 346 398 34,000  Climbing FlightAware ADS-B
Sat 04:54:12 AM 54.8561 -7.5966 288° West 458 527 32,500  Descending FlightAware UK
Sat 04:54:37 AM 54.8750 -7.6590 288° West 345 397 34,000  Climbing FlightAware ADS-B
Sat 04:54:54 AM 54.8770 -7.7072 288° West 456 525 32,500 -2,571 Descending FlightAware UK
Sat 04:55:12 AM 54.8859 -7.7545 288° West 456 525 32,500 3,913 Level FlightAware UK
Sat 04:55:17 AM 54.8950 -7.7650 288° West 343 395 34,000  Climbing FlightAware ADS-B
Sat 04:55:36 AM 54.8979 -7.8174 288° West 456 525 32,500 -2,432 Descending FlightAware UK
Sat 04:55:54 AM 54.9066 -7.8647 288° West 454 522 32,500 3,462 Level FlightAware UK
Sat 04:56:02 AM 54.9180 -7.8830 288° West 343 395 34,000  Climbing FlightAware ADS-B
Sat 04:56:18 AM 54.9183 -7.9277 288° West 454 522 32,500 -2,647 Descending FlightAware UK
Sat 04:56:36 AM 54.9271 -7.9749 288° West 452 520 32,500 3,750 Level FlightAware UK
Sat 04:56:42 AM 54.9370 -7.9880 288° West 342 394 34,000  Climbing FlightAware ADS-B
Sat 04:57:00 AM 54.9388 -8.0378 288° West 452 520 32,500 -2,500 Descending FlightAware UK
Sat 04:57:18 AM 54.9476 -8.0849 288° West 452 520 32,500 4,091 Level FlightAware UK
Sat 04:57:22 AM 54.9570 -8.0930 288° West 342 394 34,000  Climbing FlightAware ADS-B
Sat 04:57:42 AM 54.9592 -8.1479 288° West 452 520 32,500 -2,368 Descending FlightAware UK
Sat 04:58:00 AM 54.9679 -8.1950 288° West 452 520 32,500 3,600 Level FlightAware UK
Sat 04:58:07 AM 54.9790 -8.2110 288° West 342 394 34,000  Climbing FlightAware ADS-B
Sat 04:58:24 AM 54.9795 -8.2580 288° West 452 520 32,500 -2,571 Descending FlightAware UK
Sat 04:58:42 AM 54.9881 -8.3052 288° West 452 520 32,500 3,913 Level FlightAware UK
Sat 04:58:47 AM 54.9980 -8.3160 288° West 342 394 34,000  Climbing FlightAware ADS-B
Sat 04:59:06 AM 54.9997 -8.3682 288° West 452 520 32,500 -2,432 Descending FlightAware UK
Sat 04:59:24 AM 55.0083 -8.4156 288° West 452 520 32,500 3,462 Level FlightAware UK
Sat 04:59:32 AM 55.0200 -8.4330 288° West 343 395 34,000  Climbing FlightAware ADS-B
Sat 04:59:48 AM 55.0197 -8.4788 288° West 452 520 32,500 -2,647 Descending FlightAware UK
Sat 05:00:06 AM 55.0282 -8.5262 287° West 450 518 32,500 3,750 Level FlightAware UK
Sat 05:00:12 AM 55.0390 -8.5380 287° West 342 394 34,000  Climbing FlightAware ADS-B
Sat 05:00:30 AM 55.0397 -8.5895 287° West 452 520 32,500 -2,500 Descending FlightAware UK
Sat 05:00:48 AM 55.0483 -8.6371 287° West 452 520 32,500 4,091 Level FlightAware UK
Sat 05:00:52 AM 55.0580 -8.6430 287° West 344 396 34,000  Climbing FlightAware ADS-B
Sat 05:01:12 AM 55.0596 -8.7002 287° West 452 520 32,500 -2,368 Descending FlightAware UK
Sat 05:01:30 AM 55.0681 -8.7479 287° West 452 520 32,500 4,500 Level FlightAware UK
Sat 05:01:32 AM 55.0770 -8.7480 287° West 344 396 34,000  Climbing FlightAware ADS-B
Sat 05:01:48 AM 55.0765 -8.7958 287° West 452 520 32,500 -2,647 Descending FlightAware UK
Sat 05:02:06 AM 55.0851 -8.8437 287° West 452 520 32,500 3,103 Level FlightAware UK
Sat 05:02:17 AM 55.0970 -8.8580 287° West 345 397 34,000  Climbing FlightAware ADS-B
Sat 05:02:36 AM 55.0994 -8.9237 287° West 452 520 32,500 -2,432 Descending FlightAware UK
Sat 05:02:54 AM 55.1079 -8.9717 287° West 452 520 32,500 4,286 Level FlightAware UK
Sat 05:02:57 AM 55.1170 -8.9720 287° West 345 397 34,000 2,093 Climbing FlightAware ADS-B
Sat 05:03:37 AM 55.1360 -9.0770 288° West 346 398 34,000  Level FlightAware ADS-B
Sat 05:04:22 AM 55.1580 -9.2000 287° West 348 400 34,000  Level FlightAware ADS-B
Sat 05:05:07 AM 55.1790 -9.3220 287° West 351 404 34,000  Level FlightAware ADS-B
Sat 05:05:37 AM 55.1950 -9.4150 287° West 352 405 34,000  Level FlightAware ADS-B
Sat 05:06:27 AM 55.2160 -9.5380 287° West 354 407 34,000  Level FlightAware ADS-B
Sat 05:07:02 AM 55.2330 -9.6340 287° West 355 409 34,000  Level FlightAware ADS-B
Sat 05:07:52 AM 55.2570 -9.7720 287° West 355 409 34,000  Level FlightAware ADS-B
Sat 05:08:57 AM 55.2870 -9.9500 287° West 355 409 34,000  Level FlightAware ADS-B
Sat 05:09:52 AM 55.3120 -10.1020 286° West 356 410 34,000  Level FlightAware ADS-B
Sat 05:11:02 AM 55.3440 -10.2960 286° West 358 412 34,000  Level FlightAware ADS-B
Sat 05:12:27 AM 55.3830 -10.5340 286° West 358 412 34,000  Level FlightAware ADS-B
Sat 05:14:07 AM 55.4150 -10.7300 286° West 361 415 34,000  Level FlightAware ADS-B
Sat 05:14:52 AM 55.4480 -10.9400 286° West 362 417 34,000  Level FlightAware ADS-B
Sat 05:16:17 AM 55.4860 -11.1820 286° West 361 415 34,000  Level FlightAware ADS-B
Sat 05:17:07 AM 55.5080 -11.3240 285° West 361 415 34,000  Level FlightAware ADS-B
Sat 05:18:17 AM 55.5380 -11.5210 285° West 360 414 34,000  Level FlightAware ADS-B
Sat 05:19:02 AM 55.5590 -11.6570 285° West 360 414 34,000  Level FlightAware ADS-B
Sat 05:19:37 AM 55.5710 -11.7470 283° West 360 414 34,000  Level FlightAware ADS-B
Sat 05:20:27 AM 55.5870 -11.8690 283° West 360 414 34,000  Level FlightAware ADS-B
Sat 05:21:07 AM 55.6100 -11.9980 288° West 360 414 34,000  Level FlightAware ADS-B
Sat 05:21:52 AM 55.6260 -12.1180 283° West 360 414 34,000  Level FlightAware ADS-B
Sat 05:22:32 AM 55.6380 -12.2150 282° West 360 414 34,000  Level FlightAware ADS-B
Sat 05:23:12 AM 55.6510 -12.3130 283° West 360 414 34,000  Level FlightAware ADS-B
Sat 05:23:52 AM 55.6640 -12.4110 283° West 360 414 34,000  Level FlightAware ADS-B
Sat 05:24:32 AM 55.6770 -12.5090 283° West 360 414 34,000 857 Level FlightAware ADS-B
Sat 05:26:12 AM 55.7370 -12.8810 286° West 354 407 36,000 750 Climbing FlightAware ADS-B
Sat 05:27:12 AM 55.7570 -13.0290 284° West 356 410 36,000  Level FlightAware ADS-B
Sat 05:27:52 AM 55.7690 -13.1260 282° West 356 410 36,000  Level FlightAware ADS-B
Sat 05:28:32 AM 55.7820 -13.2230 283° West 356 410 36,000  Level FlightAware ADS-B
Sat 05:29:12 AM 55.7940 -13.3200 282° West 356 410 36,000  Level FlightAware ADS-B
Sat 05:30:02 AM 55.8100 -13.4410 283° West 356 410 36,000  Level FlightAware ADS-B
Sat 05:30:42 AM 55.8230 -13.5380 283° West 356 410 36,000  Level FlightAware ADS-B
Sat 05:31:22 AM 55.8350 -13.6360 282° West 356 410 36,000  Level FlightAware ADS-B
Sat 05:32:02 AM 55.8480 -13.7330 283° West 356 410 36,000  Level FlightAware ADS-B
Sat 05:32:42 AM 55.8600 -13.8300 282° West 356 410 36,000  Level FlightAware ADS-B
Sat 05:33:32 AM 55.8760 -13.9520 283° West 356 410 36,000  Level FlightAware ADS-B
Sat 05:34:12 AM 55.8890 -14.0490 283° West 356 410 36,000  Level FlightAware ADS-B
Sat 05:34:52 AM 55.9010 -14.1460 282° West 356 410 36,000  Level FlightAware ADS-B
Sat 05:35:32 AM 55.9140 -14.2440 283° West 356 410 36,000  Level FlightAware ADS-B
Sat 05:36:22 AM 55.9300 -14.3650 283° West 356 410 36,000  Level FlightAware ADS-B
Sat 05:38:00 AM 55.9430 -14.6818 274° West  Level Estimated
Sat 05:39:00 AM 55.9505 -14.8758 274° West  Level Estimated
Sat 05:40:00 AM 55.9577 -15.0699 274° West  Level Estimated
Sat 05:41:00 AM 55.9646 -15.2641 274° West  Level Estimated
Sat 05:42:00 AM 55.9714 -15.4645 274° West  Level Estimated
Sat 05:43:00 AM 55.9779 -15.6649 273° West  Level Estimated
Sat 05:44:00 AM 55.9841 -15.8654 273° West  Level Estimated
Sat 05:45:00 AM 55.9899 -16.0659 273° West  Level Estimated
Sat 05:46:00 AM 55.9955 -16.2665 273° West  Level Estimated
Sat 05:47:00 AM 56.0006 -16.4672 273° West  Level Estimated
Sat 05:48:00 AM 56.0055 -16.6679 273° West  Level Estimated
Sat 05:49:00 AM 56.0101 -16.8686 272° West  Level Estimated
Sat 05:50:00 AM 56.0143 -17.0694 272° West  Level Estimated
Sat 05:51:00 AM 56.0182 -17.2703 272° West  Level Estimated
Sat 05:52:00 AM 56.0217 -17.4712 272° West  Level Estimated
Sat 05:53:00 AM 56.0249 -17.6721 272° West  Level Estimated
Sat 05:54:00 AM 56.0279 -17.8730 272° West  Level Estimated
Sat 05:55:00 AM 56.0304 -18.0740 271° West  Level Estimated
Sat 05:56:00 AM 56.0327 -18.2750 271° West  Level Estimated
Sat 05:57:00 AM 56.0346 -18.4760 271° West  Level Estimated
Sat 05:58:00 AM 56.0362 -18.6771 271° West  Level Estimated
Sat 05:59:00 AM 56.0375 -18.8782 271° West  Level Estimated
Sat 06:00:00 AM 56.0384 -19.0792 271° West  Level Estimated
Sat 06:01:00 AM 56.0391 -19.2803 270° West  Level Estimated
Sat 06:02:00 AM 56.0393 -19.4814 270° West  Level Estimated
Sat 06:03:00 AM 56.0393 -19.6825 270° West  Level Estimated
Sat 06:04:00 AM 56.0389 -19.8836 270° West  Level Estimated
Sat 06:05:00 AM 56.0382 -20.0846 270° West  Level Estimated
Sat 06:05:00 AM 57.0000 -20.0000 285° West 427 491 36,000  Level ETMS Enhanced Traffic Management System
Sat 06:06:00 AM 56.0372 -20.2857 270° West  Level Estimated
Sat 06:07:00 AM 56.0359 -20.4868 269° West  Level Estimated
Sat 06:08:00 AM 56.0342 -20.6878 269° West  Level Estimated
Sat 06:09:00 AM 56.0322 -20.8888 269° West  Level Estimated
Sat 06:10:00 AM 56.0299 -21.0898 269° West  Level Estimated
Sat 06:11:00 AM 57.2026 -21.4835 283° West 427 491 36,000  Level FlightAware Transoceanic
Sat 06:12:00 AM 57.2301 -21.6968 283° West 427 491 36,000  Level FlightAware Transoceanic
Sat 06:13:00 AM 57.2573 -21.9103 283° West 427 491 36,000  Level FlightAware Transoceanic
Sat 06:14:00 AM 57.2841 -22.1242 283° West 427 491 36,000  Level FlightAware Transoceanic
Sat 06:15:00 AM 57.3105 -22.3384 283° West 427 491 36,000  Level FlightAware Transoceanic
Sat 06:16:00 AM 57.3366 -22.5529 283° West 427 491 36,000  Level FlightAware Transoceanic
Sat 06:17:00 AM 57.3622 -22.7677 282° West 427 491 36,000  Level FlightAware Transoceanic
Sat 06:18:00 AM 57.3876 -22.9827 282° West 427 491 36,000  Level FlightAware Transoceanic
Sat 06:19:00 AM 57.4125 -23.1981 282° West 427 491 36,000  Level FlightAware Transoceanic
Sat 06:20:00 AM 57.4371 -23.4138 282° West 427 491 36,000  Level FlightAware Transoceanic
Sat 06:21:00 AM 57.4613 -23.6297 282° West 427 491 36,000  Level FlightAware Transoceanic
Sat 06:22:00 AM 57.4852 -23.8460 282° West 427 491 36,000  Level FlightAware Transoceanic
Sat 06:23:00 AM 57.5087 -24.0625 281° West 427 491 36,000  Level FlightAware Transoceanic
Sat 06:24:00 AM 57.5318 -24.2793 281° West 427 491 36,000  Level FlightAware Transoceanic
Sat 06:25:00 AM 57.5545 -24.4964 281° West 427 491 36,000  Level FlightAware Transoceanic
Sat 06:26:00 AM 57.5769 -24.7137 281° West 427 491 36,000  Level FlightAware Transoceanic
Sat 06:27:00 AM 57.5989 -24.9313 281° West 427 491 36,000  Level FlightAware Transoceanic
Sat 06:28:00 AM 57.6205 -25.1492 280° West 427 491 36,000  Level FlightAware Transoceanic
Sat 06:29:00 AM 57.6418 -25.3673 280° West 427 491 36,000  Level FlightAware Transoceanic
Sat 06:30:00 AM 57.6626 -25.5857 280° West 427 491 36,000  Level FlightAware Transoceanic
Sat 06:31:00 AM 57.6831 -25.8043 280° West 427 491 36,000  Level FlightAware Transoceanic
Sat 06:32:00 AM 57.7032 -26.0232 280° West 427 491 36,000  Level FlightAware Transoceanic
Sat 06:33:00 AM 57.7230 -26.2423 279° West 427 491 36,000  Level FlightAware Transoceanic
Sat 06:34:00 AM 57.7423 -26.4617 279° West 427 491 36,000  Level FlightAware Transoceanic
Sat 06:35:00 AM 57.7613 -26.6813 279° West 427 491 36,000  Level FlightAware Transoceanic
Sat 06:36:00 AM 57.7799 -26.9011 279° West 427 491 36,000  Level FlightAware Transoceanic
Sat 06:37:00 AM 57.7981 -27.1211 279° West 427 491 36,000  Level FlightAware Transoceanic
Sat 06:38:00 AM 57.8159 -27.3414 279° West 427 491 36,000  Level FlightAware Transoceanic
Sat 06:39:00 AM 57.8334 -27.5618 278° West 427 491 36,000  Level FlightAware Transoceanic
Sat 06:40:00 AM 57.8505 -27.7825 278° West 427 491 36,000  Level FlightAware Transoceanic
Sat 06:41:00 AM 57.8672 -28.0034 278° West 427 491 36,000  Level FlightAware Transoceanic
Sat 06:42:00 AM 57.8835 -28.2245 278° West 427 491 36,000  Level FlightAware Transoceanic
Sat 06:43:00 AM 57.8994 -28.4458 278° West 427 491 36,000  Level FlightAware Transoceanic
Sat 06:44:00 AM 57.9149 -28.6673 277° West 427 491 36,000  Level FlightAware Transoceanic
Sat 06:45:00 AM 57.9301 -28.8890 277° West 427 491 36,000  Level FlightAware Transoceanic
Sat 06:46:00 AM 57.9448 -29.1108 277° West 427 491 36,000  Level FlightAware Transoceanic
Sat 06:47:00 AM 57.9592 -29.3328 277° West 427 491 36,000  Level FlightAware Transoceanic
Sat 06:48:00 AM 57.9732 -29.5551 277° West 427 491 36,000  Level FlightAware Transoceanic
Sat 06:49:00 AM 57.9868 -29.7775 276° West 427 491 36,000  Level FlightAware Transoceanic
Sat 06:50:00 AM 57.9993 -29.9881 276° West  Level FlightAware Approximate
Sat 06:51:00 AM 58.0115 -30.1988 276° West  Level FlightAware Approximate
Sat 06:52:00 AM 58.0072 -30.1875 274° West  Level FlightAware Approximate
Sat 06:52:00 AM 58.0000 -30.0000 274° West 433 498 36,000  Level ETMS Enhanced Traffic Management System
Sat 06:53:00 AM 58.0151 -30.3990 274° West  Level FlightAware Approximate
Sat 06:54:00 AM 58.0225 -30.6106 274° West  Level FlightAware Approximate
Sat 06:55:00 AM 58.0297 -30.8223 274° West  Level FlightAware Approximate
Sat 06:56:00 AM 58.0364 -31.0341 274° West  Level FlightAware Approximate
Sat 06:57:00 AM 58.0428 -31.2460 273° West  Level FlightAware Approximate
Sat 06:58:00 AM 58.0638 -32.0419 273° West 433 498 36,000  Level FlightAware Transoceanic
Sat 06:59:00 AM 58.0689 -32.2692 272° West 433 498 36,000  Level FlightAware Transoceanic
Sat 07:00:00 AM 58.0735 -32.4966 272° West 433 498 36,000  Level FlightAware Transoceanic
Sat 07:01:00 AM 58.0778 -32.7240 272° West 433 498 36,000  Level FlightAware Transoceanic
Sat 07:02:00 AM 58.0816 -32.9514 272° West 433 498 36,000  Level FlightAware Transoceanic
Sat 07:03:00 AM 58.0851 -33.1789 272° West 433 498 36,000  Level FlightAware Transoceanic
Sat 07:04:00 AM 58.0881 -33.4065 271° West 433 498 36,000  Level FlightAware Transoceanic
Sat 07:05:00 AM 58.0908 -33.6340 271° West 433 498 36,000  Level FlightAware Transoceanic
Sat 07:06:00 AM 58.0930 -33.8617 271° West 433 498 36,000  Level FlightAware Transoceanic
Sat 07:07:00 AM 58.0948 -34.0893 271° West 433 498 36,000  Level FlightAware Transoceanic
Sat 07:08:00 AM 58.0963 -34.3170 271° West 433 498 36,000  Level FlightAware Transoceanic
Sat 07:09:00 AM 58.0973 -34.5446 270° West 433 498 36,000  Level FlightAware Transoceanic
Sat 07:10:00 AM 58.0979 -34.7723 270° West 433 498 36,000  Level FlightAware Transoceanic
Sat 07:11:00 AM 58.0981 -35.0000 270° West 433 498 36,000  Level FlightAware Transoceanic
Sat 07:12:00 AM 58.0979 -35.2277 270° West 433 498 36,000  Level FlightAware Transoceanic
Sat 07:13:00 AM 58.0973 -35.4554 270° West 433 498 36,000  Level FlightAware Transoceanic
Sat 07:14:00 AM 58.0963 -35.6830 269° West 433 498 36,000  Level FlightAware Transoceanic
Sat 07:15:00 AM 58.0948 -35.9107 269° West 433 498 36,000  Level FlightAware Transoceanic
Sat 07:16:00 AM 58.0930 -36.1383 269° West 433 498 36,000  Level FlightAware Transoceanic
Sat 07:17:00 AM 58.0908 -36.3660 269° West 433 498 36,000  Level FlightAware Transoceanic
Sat 07:18:00 AM 58.0881 -36.5935 269° West 433 498 36,000  Level FlightAware Transoceanic
Sat 07:19:00 AM 58.0851 -36.8211 268° West 433 498 36,000  Level FlightAware Transoceanic
Sat 07:20:00 AM 58.0816 -37.0486 268° West 433 498 36,000  Level FlightAware Transoceanic
Sat 07:21:00 AM 58.0778 -37.2760 268° West 433 498 36,000  Level FlightAware Transoceanic
Sat 07:22:00 AM 58.0735 -37.5034 268° West 433 498 36,000  Level FlightAware Transoceanic
Sat 07:23:00 AM 58.0689 -37.7308 268° West 433 498 36,000  Level FlightAware Transoceanic
Sat 07:24:00 AM 58.0638 -37.9581 267° West 433 498 36,000  Level FlightAware Transoceanic
Sat 07:25:00 AM 58.0583 -38.1853 267° West 433 498 36,000  Level FlightAware Transoceanic
Sat 07:26:00 AM 58.0524 -38.4124 267° West 433 498 36,000  Level FlightAware Transoceanic
Sat 07:27:00 AM 58.0462 -38.6395 267° West 433 498 36,000  Level FlightAware Transoceanic
Sat 07:28:00 AM 58.0395 -38.8665 267° West 433 498 36,000  Level FlightAware Transoceanic
Sat 07:29:00 AM 58.0324 -39.0934 267° West 433 498 36,000  Level FlightAware Transoceanic
Sat 07:30:00 AM 58.0249 -39.3202 266° West 433 498 36,000  Level FlightAware Transoceanic
Sat 07:31:00 AM 58.0170 -39.5469 266° West 433 498 36,000  Level FlightAware Transoceanic
Sat 07:32:00 AM 58.0087 -39.7735 266° West 433 498 36,000  Level FlightAware Transoceanic
Sat 07:33:00 AM 58.0006 -39.9850 266° West  Level FlightAware Approximate
Sat 07:34:00 AM 57.9921 -40.1963 266° West  Level FlightAware Approximate
Sat 07:35:00 AM 58.0070 -40.1814 274° West  Level FlightAware Approximate
Sat 07:36:00 AM 58.0148 -40.3929 274° West  Level FlightAware Approximate
Sat 07:37:00 AM 58.0223 -40.6045 274° West  Level FlightAware Approximate
Sat 07:38:00 AM 58.0294 -40.8162 274° West  Level FlightAware Approximate
Sat 07:39:00 AM 58.0362 -41.0280 274° West  Level FlightAware Approximate
Sat 07:40:00 AM 58.0427 -41.2398 273° West  Level FlightAware Approximate
Sat 07:41:00 AM 58.0487 -41.4518 273° West  Level FlightAware Approximate
Sat 07:42:00 AM 58.0545 -41.6638 273° West  Level FlightAware Approximate
Sat 07:43:00 AM 58.0598 -41.8759 273° West  Level FlightAware Approximate
Sat 07:44:00 AM 58.0649 -42.0880 273° West  Level FlightAware Approximate
Sat 07:45:00 AM 58.0695 -42.3002 272° West  Level FlightAware Approximate
Sat 07:45:00 AM 58.0000 -40.0000 274° West 443 510 36,000  Level ETMS Enhanced Traffic Management System
Sat 07:46:00 AM 58.0738 -42.5125 272° West  Level FlightAware Approximate
Sat 07:47:00 AM 58.0778 -42.7248 272° West  Level FlightAware Approximate
Sat 07:48:00 AM 58.0814 -42.9371 272° West  Level FlightAware Approximate
Sat 07:49:00 AM 58.0847 -43.1495 272° West  Level FlightAware Approximate
Sat 07:50:00 AM 58.0876 -43.3619 272° West  Level FlightAware Approximate
Sat 07:51:00 AM 58.0955 -44.1846 271° West 443 510 36,000  Level FlightAware Transoceanic
Sat 07:52:00 AM 58.0968 -44.4175 270° West 443 510 36,000  Level FlightAware Transoceanic
Sat 07:53:00 AM 58.0976 -44.6505 270° West 443 510 36,000  Level FlightAware Transoceanic
Sat 07:54:00 AM 58.0980 -44.8835 270° West 443 510 36,000  Level FlightAware Transoceanic
Sat 07:55:00 AM 58.0980 -45.1165 270° West 443 510 36,000  Level FlightAware Transoceanic
Sat 07:56:00 AM 58.0976 -45.3495 270° West 443 510 36,000  Level FlightAware Transoceanic
Sat 07:57:00 AM 58.0968 -45.5825 270° West 443 510 36,000  Level FlightAware Transoceanic
Sat 07:58:00 AM 58.0955 -45.8154 269° West 443 510 36,000  Level FlightAware Transoceanic
Sat 07:59:00 AM 58.0938 -46.0484 269° West 443 510 36,000  Level FlightAware Transoceanic
Sat 08:00:00 AM 58.0917 -46.2813 269° West 443 510 36,000  Level FlightAware Transoceanic
Sat 08:01:00 AM 58.0891 -46.5141 269° West 443 510 36,000  Level FlightAware Transoceanic
Sat 08:02:00 AM 58.0861 -46.7470 269° West 443 510 36,000  Level FlightAware Transoceanic
Sat 08:03:00 AM 58.0827 -46.9798 268° West 443 510 36,000  Level FlightAware Transoceanic
Sat 08:04:00 AM 58.0789 -47.2126 268° West 443 510 36,000  Level FlightAware Transoceanic
Sat 08:05:00 AM 58.0747 -47.4453 268° West 443 510 36,000  Level FlightAware Transoceanic
Sat 08:06:00 AM 58.0700 -47.6779 268° West 443 510 36,000  Level FlightAware Transoceanic
Sat 08:07:00 AM 58.0649 -47.9105 268° West 443 510 36,000  Level FlightAware Transoceanic
Sat 08:08:00 AM 58.0594 -48.1430 267° West 443 510 36,000  Level FlightAware Transoceanic
Sat 08:09:00 AM 58.0534 -48.3755 267° West 443 510 36,000  Level FlightAware Transoceanic
Sat 08:10:00 AM 58.0471 -48.6078 267° West 443 510 36,000  Level FlightAware Transoceanic
Sat 08:11:00 AM 58.0403 -48.8401 267° West 443 510 36,000  Level FlightAware Transoceanic
Sat 08:12:00 AM 58.0331 -49.0723 267° West 443 510 36,000  Level FlightAware Transoceanic
Sat 08:13:00 AM 58.0254 -49.3044 266° West 443 510 36,000  Level FlightAware Transoceanic
Sat 08:14:00 AM 58.0174 -49.5364 266° West 443 510 36,000  Level FlightAware Transoceanic
Sat 08:15:00 AM 58.0089 -49.7682 266° West 443 510 36,000  Level FlightAware Transoceanic
Sat 08:16:00 AM 58.0008 -49.9797 266° West  Level FlightAware Approximate
Sat 08:17:00 AM 57.9923 -50.1910 266° West  Level FlightAware Approximate
Sat 08:17:00 AM 58.0000 -50.0000 252° West 469 540 36,000  Level ETMS Enhanced Traffic Management System
Sat 08:18:00 AM 57.9687 -50.1606 250° West  Level FlightAware Approximate
Sat 08:19:00 AM 57.9296 -50.3591 250° West  Level FlightAware Approximate
Sat 08:20:00 AM 57.8902 -50.5571 250° West  Level FlightAware Approximate
Sat 08:21:00 AM 57.8505 -50.7547 249° West  Level FlightAware Approximate
Sat 08:22:00 AM 57.8105 -50.9519 249° West  Level FlightAware Approximate
Sat 08:23:00 AM 57.7138 -51.6252 251° West 469 540 36,000  Level FlightAware Transoceanic
Sat 08:24:00 AM 57.6713 -51.8552 251° West 469 540 36,000  Level FlightAware Transoceanic
Sat 08:25:00 AM 57.6283 -52.0847 251° West 469 540 36,000  Level FlightAware Transoceanic
Sat 08:26:00 AM 57.5849 -52.3136 250° West 469 540 36,000  Level FlightAware Transoceanic
Sat 08:27:00 AM 57.5411 -52.5420 250° West 469 540 36,000  Level FlightAware Transoceanic
Sat 08:28:00 AM 57.4969 -52.7699 250° West 469 540 36,000  Level FlightAware Transoceanic
Sat 08:29:00 AM 57.4522 -52.9972 250° West 469 540 36,000  Level FlightAware Transoceanic
Sat 08:30:00 AM 57.4072 -53.2239 250° West 469 540 36,000  Level FlightAware Transoceanic
Sat 08:31:00 AM 57.3618 -53.4501 249° West 469 540 36,000  Level FlightAware Transoceanic
Sat 08:32:00 AM 57.3159 -53.6757 249° West 469 540 36,000  Level FlightAware Transoceanic
Sat 08:33:00 AM 57.2697 -53.9008 249° West 469 540 36,000  Level FlightAware Transoceanic
Sat 08:34:00 AM 57.2230 -54.1253 249° West 469 540 36,000  Level FlightAware Transoceanic
Sat 08:35:00 AM 57.1759 -54.3492 249° West 469 540 36,000  Level FlightAware Transoceanic
Sat 08:36:00 AM 57.1285 -54.5726 249° West 469 540 36,000  Level FlightAware Transoceanic
Sat 08:37:00 AM 57.0807 -54.7953 248° West 469 540 36,000  Level FlightAware Transoceanic
Sat 08:38:00 AM 57.0324 -55.0175 248° West 469 540 36,000  Level FlightAware Transoceanic
Sat 08:39:00 AM 56.9838 -55.2391 248° West 469 540 36,000  Level FlightAware Transoceanic
Sat 08:40:00 AM 56.9348 -55.4602 248° West 469 540 36,000  Level FlightAware Transoceanic
Sat 08:41:00 AM 56.8853 -55.6806 248° West 469 540 36,000  Level FlightAware Transoceanic
Sat 08:41:30 AM 56.9333 -55.6167 247° West 480 552 36,000  Level Gander Center
Sat 08:42:00 AM 56.8355 -55.9005 247° West 469 540 36,000  Level FlightAware Transoceanic
Sat 08:42:30 AM 56.8667 -55.8667 244° Southwest 480 552 36,000  Level Gander Center
Sat 08:43:00 AM 56.7854 -56.1198 247° West 469 540 36,000  Level FlightAware Transoceanic
Sat 08:43:30 AM 56.8167 -56.0333 241° Southwest 460 529 36,000  Level Gander Center
Sat 08:44:00 AM 56.7348 -56.3385 247° West 469 540 36,000  Level FlightAware Transoceanic
Sat 08:44:30 AM 56.7500 -56.3167 247° West 470 541 36,000  Level Gander Center
Sat 08:45:00 AM 56.6838 -56.5566 247° West 469 540 36,000  Level FlightAware Transoceanic
Sat 08:45:31 AM 56.6833 -56.4833 234° Southwest 470 541 36,000  Level Gander Center
Sat 08:46:00 AM 56.6325 -56.7741 247° West 469 540 36,000  Level FlightAware Transoceanic
Sat 08:46:31 AM 56.5833 -56.6667 225° Southwest 480 552 36,000  Level Gander Center
Sat 08:47:31 AM 56.5000 -56.8333 228° Southwest 470 541 36,000  Level Gander Center
Sat 08:48:31 AM 56.4167 -57.0000 228° Southwest 470 541 36,000  Level Gander Center
Sat 08:49:31 AM 56.3167 -57.1500 220° Southwest 460 529 36,000  Level Gander Center
Sat 08:50:31 AM 56.2333 -57.3500 233° Southwest 460 529 36,000  Level Gander Center
Sat 08:51:04 AM 56.2000 -57.4167 228° Southwest 460 529 36,000  Level Gander Center
Sat 08:51:31 AM 56.1500 -57.5000 223° Southwest 450 518 36,000  Level Gander Center
Sat 08:52:31 AM 56.0667 -57.6667 228° Southwest 450 518 36,000  Level Gander Center
Sat 08:53:31 AM 55.9667 -57.8500 226° Southwest 460 529 36,000  Level Gander Center
Sat 08:54:31 AM 55.9000 -58.0000 232° Southwest 460 529 36,000  Level Gander Center
Sat 08:55:31 AM 55.8000 -58.1667 223° Southwest 460 529 36,000  Level Gander Center
Sat 08:56:04 AM 55.7667 -58.2500 235° Southwest 460 529 36,000  Level Gander Center
Sat 08:57:04 AM 55.6667 -58.4167 223° Southwest 460 529 36,000  Level Gander Center
Sat 08:57:31 AM 55.6167 -58.5000 223° Southwest 460 529 36,000  Level Gander Center
Sat 08:58:31 AM 55.5333 -58.6500 226° Southwest 460 529 36,000  Level Gander Center
Sat 08:59:31 AM 55.4500 -58.8167 229° Southwest 460 529 36,000  Level Gander Center
Sat 09:00:04 AM 55.4000 -58.9000 223° Southwest 460 529 36,000  Level Gander Center
Sat 09:00:31 AM 55.3667 -58.9833 235° Southwest 460 529 36,000  Level Gander Center
Sat 09:01:30 AM 55.2833 -59.1333 226° Southwest 450 518 36,000  Level Gander Center
Sat 09:02:30 AM 55.1833 -59.3000 224° Southwest 450 518 36,000  Level Gander Center
Sat 09:03:04 AM 55.1333 -59.3833 224° Southwest 450 518 36,000  Level Gander Center
Sat 09:03:30 AM 55.1000 -59.4500 229° Southwest 450 518 36,000  Level Gander Center
Sat 09:04:30 AM 55.0000 -59.6167 224° Southwest 450 518 36,000  Level Gander Center
Sat 09:05:04 AM 54.9500 -59.7167 229° Southwest 450 518 36,000  Level Gander Center
Sat 09:06:04 AM 54.8833 -59.8667 232° Southwest 450 518 36,000  Level Gander Center
Sat 09:06:30 AM 54.8500 -59.9167 221° Southwest 450 518 36,000  Level Gander Center
Sat 09:07:30 AM 54.7500 -60.0667 221° Southwest 450 518 36,000  Level Gander Center
Sat 09:08:30 AM 54.6667 -60.2167 226° Southwest 450 518 36,000  Level Gander Center
Sat 09:09:30 AM 54.5667 -60.3833 224° Southwest 450 518 36,000  Level Gander Center
Sat 09:10:04 AM 54.5167 -60.4833 229° Southwest 450 518 36,000  Level Gander Center
Sat 09:11:04 AM 54.4333 -60.6167 223° Southwest 440 506 36,000  Level Gander Center
Sat 09:11:30 AM 54.4000 -60.6833 229° Southwest 440 506 36,000  Level Gander Center
Sat 09:12:30 AM 54.3167 -60.8167 223° Southwest 440 506 36,000 250 Level Gander Center
Sat 09:13:30 AM 54.2167 -60.9667 221° Southwest 440 506 36,500 750 Climbing Gander Center
Sat 09:14:30 AM 54.1333 -61.1167 227° Southwest 440 506 37,500 957 Climbing Gander Center
Sat 09:15:04 AM 54.0833 -61.2000 224° Southwest 440 506 38,000 319 Climbing Gander Center
Sat 09:16:04 AM 54.0000 -61.3333 223° Southwest 430 495 38,000  Level Gander Center
Sat 09:16:30 AM 53.9667 -61.4000 230° Southwest 430 495 38,000  Level Gander Center
Sat 09:17:30 AM 53.8833 -61.5333 223° Southwest 420 483 38,000  Level Gander Center
Sat 09:18:30 AM 53.8000 -61.6833 227° Southwest 420 483 38,000  Level Gander Center
Sat 09:19:30 AM 53.7167 -61.8167 223° Southwest 420 483 38,000  Level Gander Center
Sat 09:20:30 AM 53.6333 -61.9667 227° Southwest 420 483 38,000  Level Gander Center
Sat 09:21:30 AM 53.5500 -62.0667 216° Southwest 420 483 38,000  Level Gander Center
Sat 09:22:30 AM 53.4667 -62.2167 227° Southwest 420 483 38,000  Level Gander Center
Sat 09:23:30 AM 53.3500 -62.3500 214° Southwest 430 495 38,000  Level Gander Center
Sat 09:24:30 AM 53.2833 -62.4833 230° Southwest 430 495 38,000  Level Gander Center
Sat 09:25:30 AM 53.1833 -62.6167 219° Southwest 430 495 38,000  Level Gander Center
Sat 09:26:31 AM 53.1000 -62.7500 224° Southwest 430 495 38,000  Level Gander Center
Sat 09:27:31 AM 53.0167 -62.9000 227° Southwest 430 495 38,000  Level Gander Center
Sat 09:28:31 AM 52.9333 -63.0333 224° Southwest 430 495 38,000  Level Gander Center
Sat 09:29:30 AM 52.8500 -63.1667 224° Southwest 420 483 38,000  Level Gander Center
Sat 09:30:30 AM 52.7667 -63.3000 224° Southwest 420 483 38,000  Level Gander Center
Sat 09:31:30 AM 52.6667 -63.4333 219° Southwest 420 483 38,000  Level Gander Center
Sat 09:32:30 AM 52.5667 -63.5667 219° Southwest 430 495 38,000  Level Gander Center
Sat 09:33:30 AM 52.5000 -63.7000 231° Southwest 430 495 38,000  Level Gander Center
Sat 09:34:31 AM 52.4000 -63.8333 219° Southwest 430 495 38,000  Level Gander Center
Sat 09:35:11 AM 52.3500 -63.9000 219° Southwest 430 495 38,000  Level Moncton Center
Sat 09:36:11 AM 52.2500 -64.0500 223° Southwest 430 495 38,000  Level Moncton Center
Sat 09:37:11 AM 52.1667 -64.1833 224° Southwest 430 495 38,000  Level Moncton Center
Sat 09:37:31 AM 52.1333 -64.2333 223° Southwest 430 495 38,000  Level Gander Center
Sat 09:38:31 AM 52.0500 -64.3500 221° Southwest 430 495 38,000  Level Gander Center
Sat 09:39:31 AM 51.9667 -64.4833 225° Southwest 430 495 38,000  Level Gander Center
Sat 09:40:31 AM 51.8833 -64.6167 225° Southwest 430 495 38,000  Level Gander Center
Sat 09:41:31 AM 51.7667 -64.7500 215° Southwest 430 495 38,000  Level Gander Center
Sat 09:42:31 AM 51.6833 -64.8667 221° Southwest 430 495 38,000  Level Gander Center
Sat 09:43:31 AM 51.6000 -65.0000 225° Southwest 420 483 38,000  Level Gander Center
Sat 09:44:11 AM 51.5500 -65.0667 220° Southwest 420 483 38,000  Level Moncton Center
Sat 09:45:11 AM 51.4500 -65.2000 220° Southwest 420 483 38,000  Level Moncton Center
Sat 09:45:31 AM 51.4167 -65.2333 212° Southwest 420 483 38,000  Level Gander Center
Sat 09:46:11 AM 51.3667 -65.3000 220° Southwest 420 483 38,000  Level Moncton Center
Sat 09:47:11 AM 51.2833 -65.4333 225° Southwest 420 483 38,000  Level Moncton Center
Sat 09:48:11 AM 51.2000 -65.5500 221° Southwest 420 483 38,000  Level Moncton Center
Sat 09:49:11 AM 51.1000 -65.6833 220° Southwest 420 483 38,000  Level Moncton Center
Sat 09:49:31 AM 51.0667 -65.7000 197° South 420 483 38,000  Level Gander Center
Sat 09:50:30 AM 50.9833 -65.8500 229° Southwest 420 483 38,000  Level Gander Center
Sat 09:51:32 AM 50.8833 -65.9167 203° Southwest 420 483 38,000  Level Montreal Center
Sat 09:52:32 AM 50.8000 -66.0333 222° Southwest 430 495 38,000  Level Montreal Center
Sat 09:53:32 AM 50.7167 -66.1667 225° Southwest 420 483 38,000  Level Montreal Center
Sat 09:54:32 AM 50.6167 -66.2833 217° Southwest 430 495 38,000  Level Montreal Center
Sat 09:55:32 AM 50.5333 -66.3833 217° Southwest 430 495 38,000  Level Montreal Center
Sat 09:56:32 AM 50.4333 -66.5167 220° Southwest 430 495 38,000  Level Montreal Center
Sat 09:57:11 AM 50.3667 -66.6500 232° Southwest 430 495 38,000  Level Moncton Center
Sat 09:58:11 AM 50.2833 -66.7500 217° Southwest 430 495 38,000  Level Moncton Center
Sat 09:59:11 AM 50.1833 -66.8833 221° Southwest 420 483 38,000  Level Moncton Center
Sat 10:00:11 AM 50.1000 -67.0000 222° Southwest 430 495 38,000  Level Moncton Center
Sat 10:00:32 AM 50.0667 -67.0167 198° South 420 483 38,000  Level Montreal Center
Sat 10:01:32 AM 49.9833 -67.1167 218° Southwest 420 483 38,000  Level Montreal Center
Sat 10:02:11 AM 49.9333 -67.2333 236° Southwest 420 483 38,000  Level Moncton Center
Sat 10:03:11 AM 49.8167 -67.3500 213° Southwest 420 483 38,000  Level Moncton Center
Sat 10:03:32 AM 49.8000 -67.3500 180° South 420 483 38,000  Level Montreal Center
Sat 10:04:32 AM 49.7000 -67.4833 221° Southwest 420 483 38,000  Level Montreal Center
Sat 10:05:32 AM 49.6333 -67.5667 219° Southwest 420 483 38,000  Level Montreal Center
Sat 10:06:32 AM 49.5167 -67.6833 213° Southwest 410 472 38,000  Level Montreal Center
Sat 10:07:32 AM 49.4500 -67.8167 232° Southwest 410 472 38,000  Level Montreal Center
Sat 10:08:32 AM 49.3500 -67.9333 217° Southwest 410 472 38,000  Level Montreal Center
Sat 10:09:32 AM 49.2500 -68.0167 209° Southwest 420 483 38,000  Level Montreal Center
Sat 10:10:32 AM 49.1667 -68.1333 222° Southwest 420 483 38,000  Level Montreal Center
Sat 10:11:32 AM 49.0667 -68.2333 213° Southwest 420 483 38,000  Level Montreal Center
Sat 10:12:32 AM 48.9667 -68.3500 217° Southwest 420 483 38,000  Level Montreal Center
Sat 10:13:32 AM 48.8833 -68.4500 218° Southwest 420 483 38,000  Level Montreal Center
Sat 10:14:32 AM 48.7833 -68.5333 209° Southwest 420 483 38,000  Level Montreal Center
Sat 10:15:32 AM 48.6667 -68.6500 213° Southwest 420 483 38,000  Level Montreal Center
Sat 10:20:52 AM 48.1770 -69.1770 213° Southwest 427 491 38,000  Level FlightAware ADS-B
Sat 10:21:32 AM 48.1100 -69.2430 213° Southwest 427 491 38,000  Level FlightAware ADS-B
Sat 10:22:12 AM 48.0440 -69.3070 213° Southwest 427 491 38,000  Level FlightAware ADS-B
Sat 10:22:57 AM 47.9710 -69.3790 213° Southwest 428 493 38,000  Level FlightAware ADS-B
Sat 10:23:37 AM 47.9040 -69.4440 213° Southwest 428 493 38,000  Level FlightAware ADS-B
Sat 10:24:17 AM 47.8390 -69.5070 213° Southwest 428 493 38,000  Level FlightAware ADS-B
Sat 10:25:02 AM 47.7640 -69.5800 213° Southwest 428 493 38,000  Level FlightAware ADS-B
Sat 10:25:42 AM 47.6990 -69.6450 214° Southwest 428 493 38,000  Level FlightAware ADS-B
Sat 10:26:27 AM 47.6260 -69.7180 214° Southwest 428 493 38,000  Level FlightAware ADS-B
Sat 10:27:07 AM 47.5610 -69.7830 214° Southwest 428 493 38,000  Level FlightAware ADS-B
Sat 10:27:52 AM 47.4860 -69.8570 214° Southwest 429 494 38,000  Level FlightAware ADS-B
Sat 10:28:32 AM 47.4200 -69.9220 214° Southwest 429 494 38,000  Level FlightAware ADS-B
Sat 10:29:12 AM 47.3550 -69.9860 214° Southwest 429 494 38,000  Level FlightAware ADS-B
Sat 10:29:57 AM 47.2800 -70.0590 213° Southwest 428 493 38,000  Level FlightAware ADS-B
Sat 10:30:37 AM 47.2160 -70.1220 214° Southwest 427 491 38,000  Level FlightAware ADS-B
Sat 10:31:22 AM 47.1420 -70.1940 214° Southwest 424 488 38,000  Level FlightAware ADS-B
Sat 10:32:02 AM 47.0770 -70.2570 213° Southwest 422 486 38,000  Level FlightAware ADS-B
Sat 10:32:42 AM 47.0120 -70.3200 213° Southwest 420 483 38,000  Level FlightAware ADS-B
Sat 10:33:27 AM 46.9400 -70.3900 214° Southwest 418 481 38,000  Level FlightAware ADS-B
Sat 10:34:07 AM 46.8750 -70.4520 213° Southwest 416 479 38,000  Level FlightAware ADS-B
Sat 10:34:47 AM 46.8110 -70.5140 214° Southwest 413 475 38,000  Level FlightAware ADS-B
Sat 10:35:32 AM 46.7390 -70.5820 213° Southwest 411 473 38,000  Level FlightAware ADS-B
Sat 10:36:17 AM 46.6680 -70.6500 213° Southwest 410 472 38,000  Level FlightAware ADS-B
Sat 10:36:57 AM 46.6050 -70.7090 213° Southwest 410 472 38,000  Level FlightAware ADS-B
Sat 10:37:37 AM 46.5420 -70.7700 214° Southwest 409 471 38,000  Level FlightAware ADS-B
Sat 10:38:22 AM 46.4710 -70.8360 213° Southwest 409 471 38,000  Level FlightAware ADS-B
Sat 10:39:02 AM 46.4080 -70.8960 213° Southwest 410 472 38,000  Level FlightAware ADS-B
Sat 10:39:42 AM 46.3440 -70.9550 212° Southwest 409 471 38,000  Level FlightAware ADS-B
Sat 10:40:27 AM 46.2730 -71.0220 213° Southwest 410 472 38,000  Level FlightAware ADS-B
Sat 10:41:07 AM 46.2100 -71.0810 213° Southwest 412 474 38,000  Level FlightAware ADS-B
Sat 10:41:52 AM 46.1380 -71.1470 212° Southwest 413 475 38,000  Level FlightAware ADS-B
Sat 10:42:32 AM 46.0740 -71.2070 213° Southwest 413 475 38,000  Level FlightAware ADS-B
Sat 10:43:17 AM 46.0020 -71.2730 212° Southwest 413 475 38,000  Level FlightAware ADS-B
Sat 10:43:57 AM 45.9370 -71.3330 213° Southwest 414 476 38,000  Level FlightAware ADS-B
Sat 10:44:37 AM 45.8740 -71.3910 213° Southwest 414 476 38,000  Level FlightAware ADS-B
Sat 10:45:22 AM 45.8010 -71.4570 212° Southwest 414 476 38,000  Level FlightAware ADS-B
Sat 10:46:02 AM 45.7370 -71.5160 213° Southwest 415 478 38,000  Level FlightAware ADS-B
Sat 10:46:42 AM 45.6720 -71.5750 212° Southwest 415 478 38,000  Level FlightAware ADS-B
Sat 10:47:27 AM 45.5990 -71.6400 212° Southwest 415 478 38,000  Level FlightAware ADS-B
Sat 10:48:07 AM 45.5350 -71.6980 212° Southwest 415 478 38,000  Level FlightAware ADS-B
Sat 10:48:52 AM 45.4620 -71.7640 212° Southwest 415 478 38,000  Level FlightAware ADS-B
Sat 10:49:32 AM 45.3970 -71.8220 212° Southwest 416 479 38,000  Level FlightAware ADS-B
Sat 10:50:12 AM 45.3320 -71.8800 212° Southwest 417 480 38,000  Level FlightAware ADS-B
Sat 10:50:57 AM 45.2590 -71.9440 212° Southwest 417 480 38,000  Level FlightAware ADS-B
Sat 10:51:37 AM 45.1940 -72.0020 212° Southwest 415 478 38,000  Level FlightAware ADS-B
Sat 10:52:22 AM 45.1210 -72.0660 212° Southwest 414 476 38,000  Level FlightAware ADS-B
Sat 10:53:02 AM 45.0570 -72.1230 212° Southwest 412 474 38,000  Level FlightAware ADS-B
Sat 10:53:42 AM 44.9920 -72.1800 212° Southwest 410 472 38,000  Level FlightAware ADS-B
Sat 10:54:27 AM 44.9210 -72.2420 212° Southwest 410 472 38,000  Level FlightAware ADS-B
Sat 10:55:07 AM 44.8560 -72.2990 212° Southwest 410 472 38,000  Level FlightAware ADS-B
Sat 10:55:52 AM 44.7880 -72.3580 212° Southwest 413 475 38,000  Level FlightAware ADS-B
Sat 10:56:32 AM 44.7190 -72.4150 210° Southwest 416 479 38,000  Level FlightAware ADS-B
Sat 10:57:12 AM 44.6520 -72.4680 209° Southwest 419 482 38,000  Level FlightAware ADS-B
Sat 10:57:57 AM 44.5730 -72.5310 210° Southwest 419 482 38,000  Level FlightAware ADS-B
Sat 10:58:37 AM 44.5100 -72.5830 210° Southwest 415 478 38,000  Level FlightAware ADS-B
Sat 10:59:22 AM 44.4360 -72.6420 210° Southwest 409 471 38,000  Level FlightAware ADS-B
Sat 11:00:02 AM 44.3700 -72.6940 209° Southwest 404 465 38,000  Level FlightAware ADS-B
Sat 11:00:42 AM 44.3020 -72.7480 210° Southwest 400 460 38,000  Level FlightAware ADS-B
Sat 11:01:27 AM 44.2330 -72.8030 210° Southwest 397 457 38,000  Level FlightAware ADS-B
Sat 11:02:07 AM 44.1700 -72.8530 210° Southwest 394 453 38,000  Level FlightAware ADS-B
Sat 11:02:47 AM 44.1050 -72.9040 209° Southwest 392 451 38,000  Level FlightAware ADS-B
Sat 11:03:32 AM 44.0340 -72.9600 210° Southwest 391 450 38,000  Level FlightAware ADS-B
Sat 11:04:12 AM 43.9690 -73.0100 209° Southwest 390 449 38,000 -212 Level FlightAware ADS-B
Sat 11:04:57 AM 43.9020 -73.0630 210° Southwest 390 449 37,700 -1,000 Descending FlightAware ADS-B
Sat 11:05:42 AM 43.8290 -73.1200 209° Southwest 395 455 36,500 -1,482 Descending FlightAware ADS-B
Sat 11:06:22 AM 43.7660 -73.1690 209° Southwest 398 458 35,600 -1,360 Descending FlightAware ADS-B
Sat 11:06:57 AM 43.7110 -73.2110 209° Southwest 401 461 34,800 -1,125 Descending FlightAware ADS-B
Sat 11:07:42 AM 43.6560 -73.2530 209° Southwest 396 456 34,100 -975 Descending FlightAware ADS-B
Sat 11:08:17 AM 43.5970 -73.2990 209° Southwest 388 447 33,500 -2,259 Descending FlightAware ADS-B
Sat 11:09:07 AM 43.5050 -73.3700 209° Southwest 389 448 30,900 -2,589 Descending FlightAware ADS-B
Sat 11:09:52 AM 43.4500 -73.4120 209° Southwest 388 447 29,400 -1,976 Descending FlightAware ADS-B
Sat 11:10:32 AM 43.3910 -73.4560 208° Southwest 380 437 28,100 -1,453 Descending FlightAware ADS-B
Sat 11:11:27 AM 43.3130 -73.5160 209° Southwest 373 429 27,100 -632 Descending FlightAware ADS-B
Sat 11:12:07 AM 43.2610 -73.5550 209° Southwest 373 429 27,100  Level FlightAware ADS-B
Sat 11:12:47 AM 43.2100 -73.5940 209° Southwest 373 429 27,100  Level FlightAware ADS-B
Sat 11:13:17 AM 43.1720 -73.6240 210° Southwest 373 429 27,100 -4,960 Level FlightAware ADS-B
Sat 11:14:02 AM 43.0480 -73.6580 191° South 356 410 20,900 -5,153 Descending FlightAware ADS-B
Sat 11:14:42 AM 42.9850 -73.6840 197° South 353 406 19,800 -1,624 Descending FlightAware ADS-B
Sat 11:15:27 AM 42.9160 -73.7130 197° South 353 406 18,600 -1,553 Descending FlightAware ADS-B
Sat 11:16:07 AM 42.8550 -73.7390 197° South 351 404 17,600 -1,575 Descending FlightAware ADS-B
Sat 11:16:47 AM 42.7920 -73.7650 197° South 348 400 16,500 -1,059 Descending FlightAware ADS-B
Sat 11:17:32 AM 42.7230 -73.7950 198° South 343 395 16,100 -300 Descending FlightAware ADS-B
Sat 11:18:07 AM 42.6700 -73.8190 198° South 348 400 16,100  Level FlightAware ADS-B
Sat 11:18:57 AM 42.5990 -73.8500 198° South 349 402 16,100  Level FlightAware ADS-B
Sat 11:19:52 AM 42.5150 -73.8870 198° South 348 400 16,100  Level FlightAware ADS-B
Sat 11:20:32 AM 42.4630 -73.9100 198° South 348 400 16,100  Level FlightAware ADS-B
Sat 11:21:12 AM 42.4110 -73.9330 198° South 348 400 16,100  Level FlightAware ADS-B
Sat 11:21:52 AM 42.3590 -73.9560 198° South 348 400 16,100  Level FlightAware ADS-B
Sat 11:22:42 AM 42.2940 -73.9840 198° South 348 400 16,100  Level FlightAware ADS-B
Sat 11:23:12 AM 42.2550 -74.0010 198° South 348 400 16,100 -582 Level FlightAware ADS-B
Sat 11:28:22 AM 41.7370 -74.2270 198° South 334 384 12,800 -867 Descending FlightAware ADS-B
Sat 11:29:12 AM 41.6650 -74.2580 198° South 330 380 10,900 -1,440 Descending FlightAware ADS-B
Sat 11:30:02 AM 41.5970 -74.2870 198° South 314 361 10,400 -300 Descending FlightAware ADS-B
Sat 11:30:52 AM 41.5380 -74.3110 197° South 314 361 10,400  Level FlightAware ADS-B
Sat 11:31:32 AM 41.4910 -74.3300 197° South 314 361 10,400 -669 Level FlightAware ADS-B
Sat 11:35:57 AM 41.1650 -74.4730 198° South 272 313 7,000 -711 Descending FlightAware ADS-B
Sat 11:36:19 AM 41.1357 -74.4852 197° South 276 318 7,000  Level FlightAware ADS-B
Sat 11:36:34 AM 41.1173 -74.4932 198° South 276 318 7,000 200 Level FlightAware ADS-B
Sat 11:36:49 AM 41.0985 -74.5012 198° South 275 316 7,100 -95 Climbing FlightAware ADS-B
Sat 11:37:37 AM 41.0450 -74.5200 195° South 284 327 6,900 -538 Descending FlightAware ADS-B
Sat 11:38:07 AM 41.0030 -74.5300 190° South 285 328 6,400 -982 Descending FlightAware ADS-B
Sat 11:38:32 AM 40.9720 -74.5380 191° South 282 325 6,000 -600 Descending FlightAware ADS-B
Sat 11:38:47 AM 40.9510 -74.5410 186° South 278 320 6,000  Level FlightAware ADS-B
Sat 11:39:17 AM 40.9120 -74.5360 174° South 275 316 6,000  Level FlightAware ADS-B
Sat 11:39:28 AM 40.8973 -74.5340 174° South 273 314 6,000  Level FlightAware ADS-B
Sat 11:39:46 AM 40.8734 -74.5306 174° South 276 318 6,000  Level FlightAware ADS-B
Sat 11:39:56 AM 40.8611 -74.5289 174° South 280 322 6,000  Level FlightAware ADS-B
Sat 11:40:02 AM 40.8542 -74.5280 174° South 275 316 6,000  Level FlightAware ADS-B
Sat 11:40:22 AM 40.8290 -74.5243 174° South 276 318 6,000  Level FlightAware ADS-B
Sat 11:40:38 AM 40.8077 -74.5211 174° South 271 312 6,000  Level FlightAware ADS-B
Sat 11:41:02 AM 40.7795 -74.5168 173° South 258 297 6,000  Level FlightAware ADS-B
Sat 11:41:18 AM 40.7603 -74.5143 174° South 251 289 6,000  Level FlightAware ADS-B
Sat 11:41:33 AM 40.7433 -74.5120 174° South 248 285 6,000  Level FlightAware ADS-B
Sat 11:41:52 AM 40.7225 -74.5092 174° South 241 277 6,000  Level FlightAware ADS-B
Sat 11:42:47 AM 40.6640 -74.4990 172° South 234 269 6,000  Level FlightAware ADS-B
Sat 11:42:51 AM 40.6584 -74.4985 176° South 237 273 6,000 -462 Level FlightAware ADS-B
Sat 11:43:00 AM 40.6485 -74.4971 174° South 239 275 5,900 -923 Descending FlightAware ADS-B
Sat 11:43:17 AM 40.6302 -74.4949 175° South 238 274 5,600 -857 Descending FlightAware ADS-B
Sat 11:43:28 AM 40.6180 -74.4937 176° South 235 270 5,500 -692 Descending FlightAware ADS-B
Sat 11:43:43 AM 40.6015 -74.4921 176° South 233 268 5,300 -621 Descending FlightAware ADS-B
Sat 11:43:57 AM 40.5861 -74.4909 177° South 235 270 5,200 -632 Descending FlightAware ADS-B
Sat 11:44:02 AM 40.5804 -74.4901 174° South 236 272 5,100 -857 Descending FlightAware ADS-B
Sat 11:44:11 AM 40.5715 -74.4865 163° South 239 275 5,000 -1,000 Descending FlightAware ADS-B
Sat 11:44:14 AM 40.5686 -74.4844 151° Southeast 239 275 4,900 -600 Descending FlightAware ADS-B
Sat 11:44:21 AM 40.5624 -74.4779 141° Southeast 237 273 4,900 -462 Level FlightAware ADS-B
Sat 11:44:27 AM 40.5584 -74.4719 131° Southeast 236 272 4,800 -857 Descending FlightAware ADS-B
Sat 11:44:42 AM 40.5483 -74.4542 127° Southeast 235 270 4,600 -800 Descending FlightAware ADS-B
Sat 11:44:57 AM 40.5385 -74.4369 127° Southeast 232 267 4,400 -774 Descending FlightAware ADS-B
Sat 11:45:13 AM 40.5288 -74.4199 127° Southeast 232 267 4,200 -774 Descending FlightAware ADS-B
Sat 11:45:28 AM 40.5186 -74.4020 127° Southeast 235 270 4,000 -400 Descending FlightAware ADS-B
Sat 11:45:43 AM 40.5093 -74.3857 127° Southeast 216 249 4,000  Level FlightAware ADS-B
Sat 11:45:56 AM 40.5016 -74.3726 128° Southeast 207 238 4,000  Level FlightAware ADS-B
Sat 11:46:00 AM 40.4997 -74.3692 126° Southeast 205 236 4,000 -750 Level FlightAware ADS-B
Sat 11:46:12 AM 40.4929 -74.3575 127° Southeast 199 229 3,800 -667 Descending FlightAware ADS-B
Sat 11:46:18 AM 40.4896 -74.3520 128° Southeast 196 226 3,800 -333 Level FlightAware ADS-B
Sat 11:46:30 AM 40.4831 -74.3409 128° Southeast 187 215 3,700 -333 Descending FlightAware ADS-B
Sat 11:46:36 AM 40.4800 -74.3351 125° Southeast 187 215 3,700 -750 Level FlightAware ADS-B
Sat 11:46:46 AM 40.4755 -74.3260 123° Southeast 182 209 3,500 -700 Descending FlightAware ADS-B
Sat 11:47:36 AM 40.4821 -74.2800 79° East 180 207 3,000 -423 Descending FlightAware ADS-B
Sat 11:47:57 AM 40.4973 -74.2696 27° Northeast 182 209 3,000  Level FlightAware ADS-B
Sat 11:48:17 AM 40.5111 -74.2609 26° Northeast 167 192 3,000  Level FlightAware ADS-B
Sat 11:48:26 AM 40.5176 -74.2570 25° Northeast 166 191 3,000  Level FlightAware ADS-B
Sat 11:48:48 AM 40.5332 -74.2479 24° Northeast 166 191 3,000  Level FlightAware ADS-B
Sat 11:49:03 AM 40.5445 -74.2410 25° Northeast 174 200 3,000  Level FlightAware ADS-B
Sat 11:49:14 AM 40.5523 -74.2360 26° Northeast 173 199 3,000  Level FlightAware ADS-B
Sat 11:49:29 AM 40.5632 -74.2291 26° Northeast 175 201 3,000 -188 Level FlightAware ADS-B
Sat 11:49:46 AM 40.5758 -74.2214 25° Northeast 176 203 2,900 -875 Descending FlightAware ADS-B
Sat 11:50:17 AM 40.5986 -74.2072 25° Northeast 176 203 2,300 -1,043 Descending FlightAware ADS-B
Sat 11:50:32 AM 40.6096 -74.2005 25° Northeast 171 197 2,100 -938 Descending FlightAware ADS-B
Sat 11:50:49 AM 40.6213 -74.1931 26° Northeast 159 183 1,800 -837 Descending FlightAware ADS-B
Sat 11:51:15 AM 40.6372 -74.1833 25° Northeast 154 177 1,500 -750 Descending FlightAware ADS-B
Sat 11:51:29 AM 40.6455 -74.1782 25° Northeast 132 152 1,300 -923 Descending FlightAware ADS-B
Sat 11:51:41 AM 40.6520 -74.1742 25° Northeast 131 151 1,100 -643 Descending FlightAware ADS-B
Sat 11:51:57 AM 40.6602 -74.1691 25° Northeast 130 150 1,000 -615 Descending FlightAware ADS-B
Sat 11:52:20 AM 40.6734 -74.1610 25° Northeast 133 153 700 -769 Descending FlightAware ADS-B
Sat 11:52:36 AM 40.6819 -74.1557 25° Northeast 133 153 500 -783 Descending FlightAware ADS-B
Sat 11:52:43 AM 40.6858 -74.1533 25° Northeast 135 155 400 -632 Descending FlightAware ADS-B
Sat 11:52:55 AM 40.6928 -74.1490 25° Northeast 133 153 300 -500 Descending FlightAware ADS-B

Login

Don't have an account? Register now (free) for customized features, flight alerts, and more!